<?xml version="1.0" encoding="UTF-8" standalone="no" ?>
<gpx xmlns="http://www.topografix.com/GPX/1/1" xmlns:xsi="http://www.w3.org/2001/XMLSchema-instance" xsi:schemaLocation="http://www.topografix.com/GPX/1/1 http://www.topografix.com/GPX/1/1/gpx.xsd" version="1.1" creator="VisuGPX - https://www.visugpx.com">
  <metadata>
    <name>Rocamadour - Les gouffres</name>
    <desc><![CDATA[A partir de Rocamadour un aller retour pour aller voir les deux gouffres de Cabouy et Saint-Sauveur. Les résurgences sont recouvertes d'algues ce qui en fait l'originalité.

Possibilité de faire un aller retour également à partir du gouffre de Cabouy pour aller voir le gouffre de Poumayssen. Nous ne l'avons pas fait, il faisait trop chaud ce jour là !!!]]></desc>
  </metadata>
  <trk>
    <name><![CDATA[2023-09-26 17:59:25]]></name>
    <trkseg>
      <trkpt lat="44.79499" lon="1.60723">
        <ele>142.33</ele>
        <time>2023-09-26T13:21:04Z</time>
      </trkpt>
      <trkpt lat="44.79498" lon="1.6071">
        <ele>142.43</ele>
        <time>2023-09-26T13:21:11Z</time>
      </trkpt>
      <trkpt lat="44.79497" lon="1.60696">
        <ele>141.74</ele>
        <time>2023-09-26T13:21:18Z</time>
      </trkpt>
      <trkpt lat="44.79497" lon="1.60684">
        <ele>142.25</ele>
        <time>2023-09-26T13:21:24Z</time>
      </trkpt>
      <trkpt lat="44.79498" lon="1.6067">
        <ele>142.08</ele>
        <time>2023-09-26T13:21:31Z</time>
      </trkpt>
      <trkpt lat="44.79501" lon="1.60658">
        <ele>141.91</ele>
        <time>2023-09-26T13:21:39Z</time>
      </trkpt>
      <trkpt lat="44.79503" lon="1.60646">
        <ele>142.04</ele>
        <time>2023-09-26T13:21:47Z</time>
      </trkpt>
      <trkpt lat="44.7951" lon="1.60633">
        <ele>142.49</ele>
        <time>2023-09-26T13:21:54Z</time>
      </trkpt>
      <trkpt lat="44.79514" lon="1.60622">
        <ele>142.61</ele>
        <time>2023-09-26T13:22:01Z</time>
      </trkpt>
      <trkpt lat="44.79519" lon="1.60612">
        <ele>142.59</ele>
        <time>2023-09-26T13:22:08Z</time>
      </trkpt>
      <trkpt lat="44.79523" lon="1.60601">
        <ele>142.5</ele>
        <time>2023-09-26T13:22:15Z</time>
      </trkpt>
      <trkpt lat="44.79526" lon="1.60589">
        <ele>142.47</ele>
        <time>2023-09-26T13:22:22Z</time>
      </trkpt>
      <trkpt lat="44.79529" lon="1.60576">
        <ele>142.46</ele>
        <time>2023-09-26T13:22:29Z</time>
      </trkpt>
      <trkpt lat="44.79535" lon="1.60566">
        <ele>142.42</ele>
        <time>2023-09-26T13:22:36Z</time>
      </trkpt>
      <trkpt lat="44.7954" lon="1.60558">
        <ele>142.39</ele>
        <time>2023-09-26T13:22:42Z</time>
      </trkpt>
      <trkpt lat="44.79545" lon="1.60548">
        <ele>142.33</ele>
        <time>2023-09-26T13:22:49Z</time>
      </trkpt>
      <trkpt lat="44.7955" lon="1.60537">
        <ele>142.45</ele>
        <time>2023-09-26T13:22:56Z</time>
      </trkpt>
      <trkpt lat="44.79554" lon="1.60527">
        <ele>142.51</ele>
        <time>2023-09-26T13:23:02Z</time>
      </trkpt>
      <trkpt lat="44.79556" lon="1.60518">
        <ele>142.51</ele>
        <time>2023-09-26T13:23:09Z</time>
      </trkpt>
      <trkpt lat="44.79559" lon="1.60507">
        <ele>142.49</ele>
        <time>2023-09-26T13:23:16Z</time>
      </trkpt>
      <trkpt lat="44.79562" lon="1.60496">
        <ele>142.43</ele>
        <time>2023-09-26T13:23:24Z</time>
      </trkpt>
      <trkpt lat="44.79565" lon="1.60489">
        <ele>142.26</ele>
        <time>2023-09-26T13:23:35Z</time>
      </trkpt>
      <trkpt lat="44.7957" lon="1.60485">
        <ele>142.04</ele>
        <time>2023-09-26T13:23:53Z</time>
      </trkpt>
      <trkpt lat="44.79565" lon="1.6048">
        <ele>141.85</ele>
        <time>2023-09-26T13:24:18Z</time>
      </trkpt>
      <trkpt lat="44.79559" lon="1.60483">
        <ele>141.64</ele>
        <time>2023-09-26T13:24:36Z</time>
      </trkpt>
      <trkpt lat="44.79566" lon="1.60473">
        <ele>142.03</ele>
        <time>2023-09-26T13:24:47Z</time>
      </trkpt>
      <trkpt lat="44.7957" lon="1.6048">
        <ele>142.53</ele>
        <time>2023-09-26T13:25:09Z</time>
      </trkpt>
      <trkpt lat="44.79573" lon="1.60462">
        <ele>142.55</ele>
        <time>2023-09-26T13:25:20Z</time>
      </trkpt>
      <trkpt lat="44.79575" lon="1.60445">
        <ele>142.77</ele>
        <time>2023-09-26T13:25:28Z</time>
      </trkpt>
      <trkpt lat="44.79577" lon="1.60432">
        <ele>142.95</ele>
        <time>2023-09-26T13:25:35Z</time>
      </trkpt>
      <trkpt lat="44.79579" lon="1.60419">
        <ele>143</ele>
        <time>2023-09-26T13:25:42Z</time>
      </trkpt>
      <trkpt lat="44.79579" lon="1.60406">
        <ele>143.01</ele>
        <time>2023-09-26T13:25:49Z</time>
      </trkpt>
      <trkpt lat="44.79575" lon="1.60394">
        <ele>142.95</ele>
        <time>2023-09-26T13:25:57Z</time>
      </trkpt>
      <trkpt lat="44.7957" lon="1.60382">
        <ele>142.64</ele>
        <time>2023-09-26T13:26:04Z</time>
      </trkpt>
      <trkpt lat="44.79565" lon="1.60373">
        <ele>142.18</ele>
        <time>2023-09-26T13:26:12Z</time>
      </trkpt>
      <trkpt lat="44.79559" lon="1.60362">
        <ele>141.89</ele>
        <time>2023-09-26T13:26:20Z</time>
      </trkpt>
      <trkpt lat="44.7955" lon="1.60348">
        <ele>141.62</ele>
        <time>2023-09-26T13:26:29Z</time>
      </trkpt>
      <trkpt lat="44.79543" lon="1.60333">
        <ele>141.58</ele>
        <time>2023-09-26T13:26:37Z</time>
      </trkpt>
      <trkpt lat="44.79538" lon="1.60321">
        <ele>141.53</ele>
        <time>2023-09-26T13:26:44Z</time>
      </trkpt>
      <trkpt lat="44.79534" lon="1.60306">
        <ele>141.36</ele>
        <time>2023-09-26T13:26:52Z</time>
      </trkpt>
      <trkpt lat="44.79527" lon="1.60295">
        <ele>141.22</ele>
        <time>2023-09-26T13:27:01Z</time>
      </trkpt>
      <trkpt lat="44.79521" lon="1.60283">
        <ele>141.07</ele>
        <time>2023-09-26T13:27:09Z</time>
      </trkpt>
      <trkpt lat="44.79512" lon="1.6027">
        <ele>141</ele>
        <time>2023-09-26T13:27:17Z</time>
      </trkpt>
      <trkpt lat="44.79504" lon="1.6026">
        <ele>140.97</ele>
        <time>2023-09-26T13:27:24Z</time>
      </trkpt>
      <trkpt lat="44.79498" lon="1.60249">
        <ele>140.77</ele>
        <time>2023-09-26T13:27:32Z</time>
      </trkpt>
      <trkpt lat="44.79491" lon="1.60238">
        <ele>140.4</ele>
        <time>2023-09-26T13:27:40Z</time>
      </trkpt>
      <trkpt lat="44.79485" lon="1.60226">
        <ele>140</ele>
        <time>2023-09-26T13:27:47Z</time>
      </trkpt>
      <trkpt lat="44.79479" lon="1.60218">
        <ele>139.9</ele>
        <time>2023-09-26T13:27:55Z</time>
      </trkpt>
      <trkpt lat="44.79476" lon="1.60205">
        <ele>139.78</ele>
        <time>2023-09-26T13:28:03Z</time>
      </trkpt>
      <trkpt lat="44.79471" lon="1.60192">
        <ele>139.41</ele>
        <time>2023-09-26T13:28:12Z</time>
      </trkpt>
      <trkpt lat="44.79465" lon="1.60179">
        <ele>139.25</ele>
        <time>2023-09-26T13:28:20Z</time>
      </trkpt>
      <trkpt lat="44.7946" lon="1.60161">
        <ele>139.06</ele>
        <time>2023-09-26T13:28:30Z</time>
      </trkpt>
      <trkpt lat="44.79456" lon="1.60146">
        <ele>139.01</ele>
        <time>2023-09-26T13:28:39Z</time>
      </trkpt>
      <trkpt lat="44.79449" lon="1.60132">
        <ele>138.94</ele>
        <time>2023-09-26T13:28:49Z</time>
      </trkpt>
      <trkpt lat="44.79443" lon="1.60117">
        <ele>138.98</ele>
        <time>2023-09-26T13:28:58Z</time>
      </trkpt>
      <trkpt lat="44.79434" lon="1.60105">
        <ele>139.09</ele>
        <time>2023-09-26T13:29:06Z</time>
      </trkpt>
      <trkpt lat="44.7943" lon="1.60092">
        <ele>139.38</ele>
        <time>2023-09-26T13:29:14Z</time>
      </trkpt>
      <trkpt lat="44.79429" lon="1.6008">
        <ele>140.14</ele>
        <time>2023-09-26T13:29:22Z</time>
      </trkpt>
      <trkpt lat="44.79429" lon="1.60066">
        <ele>140.62</ele>
        <time>2023-09-26T13:29:30Z</time>
      </trkpt>
      <trkpt lat="44.7943" lon="1.60051">
        <ele>141.22</ele>
        <time>2023-09-26T13:29:39Z</time>
      </trkpt>
      <trkpt lat="44.79431" lon="1.60037">
        <ele>141.58</ele>
        <time>2023-09-26T13:29:47Z</time>
      </trkpt>
      <trkpt lat="44.79435" lon="1.60022">
        <ele>141.67</ele>
        <time>2023-09-26T13:29:56Z</time>
      </trkpt>
      <trkpt lat="44.7944" lon="1.60009">
        <ele>141.84</ele>
        <time>2023-09-26T13:30:05Z</time>
      </trkpt>
      <trkpt lat="44.79445" lon="1.59996">
        <ele>141.98</ele>
        <time>2023-09-26T13:30:18Z</time>
      </trkpt>
      <trkpt lat="44.79452" lon="1.59981">
        <ele>142</ele>
        <time>2023-09-26T13:30:27Z</time>
      </trkpt>
      <trkpt lat="44.79459" lon="1.59971">
        <ele>142.1</ele>
        <time>2023-09-26T13:30:35Z</time>
      </trkpt>
      <trkpt lat="44.79467" lon="1.59963">
        <ele>142.27</ele>
        <time>2023-09-26T13:30:43Z</time>
      </trkpt>
      <trkpt lat="44.79475" lon="1.59955">
        <ele>142.41</ele>
        <time>2023-09-26T13:30:51Z</time>
      </trkpt>
      <trkpt lat="44.79485" lon="1.59949">
        <ele>142.52</ele>
        <time>2023-09-26T13:31:00Z</time>
      </trkpt>
      <trkpt lat="44.79496" lon="1.59945">
        <ele>142.7</ele>
        <time>2023-09-26T13:31:08Z</time>
      </trkpt>
      <trkpt lat="44.79505" lon="1.59938">
        <ele>142.84</ele>
        <time>2023-09-26T13:31:17Z</time>
      </trkpt>
      <trkpt lat="44.79515" lon="1.59931">
        <ele>142.97</ele>
        <time>2023-09-26T13:31:26Z</time>
      </trkpt>
      <trkpt lat="44.79525" lon="1.59923">
        <ele>143.01</ele>
        <time>2023-09-26T13:31:34Z</time>
      </trkpt>
      <trkpt lat="44.79533" lon="1.59914">
        <ele>142.67</ele>
        <time>2023-09-26T13:31:42Z</time>
      </trkpt>
      <trkpt lat="44.79542" lon="1.59906">
        <ele>142.33</ele>
        <time>2023-09-26T13:31:50Z</time>
      </trkpt>
      <trkpt lat="44.79551" lon="1.59897">
        <ele>141.43</ele>
        <time>2023-09-26T13:31:58Z</time>
      </trkpt>
      <trkpt lat="44.7956" lon="1.5989">
        <ele>141.24</ele>
        <time>2023-09-26T13:32:05Z</time>
      </trkpt>
      <trkpt lat="44.79569" lon="1.59883">
        <ele>141.21</ele>
        <time>2023-09-26T13:32:13Z</time>
      </trkpt>
      <trkpt lat="44.79577" lon="1.59877">
        <ele>141.29</ele>
        <time>2023-09-26T13:32:21Z</time>
      </trkpt>
      <trkpt lat="44.79588" lon="1.5987">
        <ele>141.62</ele>
        <time>2023-09-26T13:32:29Z</time>
      </trkpt>
      <trkpt lat="44.79595" lon="1.5986">
        <ele>141.93</ele>
        <time>2023-09-26T13:32:37Z</time>
      </trkpt>
      <trkpt lat="44.79602" lon="1.59852">
        <ele>141.91</ele>
        <time>2023-09-26T13:32:45Z</time>
      </trkpt>
      <trkpt lat="44.79607" lon="1.59842">
        <ele>141.74</ele>
        <time>2023-09-26T13:32:52Z</time>
      </trkpt>
      <trkpt lat="44.79612" lon="1.59829">
        <ele>141.6</ele>
        <time>2023-09-26T13:32:59Z</time>
      </trkpt>
      <trkpt lat="44.79616" lon="1.59818">
        <ele>141.62</ele>
        <time>2023-09-26T13:33:07Z</time>
      </trkpt>
      <trkpt lat="44.7962" lon="1.59805">
        <ele>141.66</ele>
        <time>2023-09-26T13:33:15Z</time>
      </trkpt>
      <trkpt lat="44.79624" lon="1.59792">
        <ele>141.75</ele>
        <time>2023-09-26T13:33:23Z</time>
      </trkpt>
      <trkpt lat="44.79625" lon="1.59776">
        <ele>141.81</ele>
        <time>2023-09-26T13:33:31Z</time>
      </trkpt>
      <trkpt lat="44.79626" lon="1.59765">
        <ele>141.81</ele>
        <time>2023-09-26T13:33:38Z</time>
      </trkpt>
      <trkpt lat="44.79626" lon="1.59753">
        <ele>141.63</ele>
        <time>2023-09-26T13:33:45Z</time>
      </trkpt>
      <trkpt lat="44.79624" lon="1.59742">
        <ele>141.16</ele>
        <time>2023-09-26T13:33:52Z</time>
      </trkpt>
      <trkpt lat="44.79623" lon="1.5973">
        <ele>140.56</ele>
        <time>2023-09-26T13:34:00Z</time>
      </trkpt>
      <trkpt lat="44.79619" lon="1.59718">
        <ele>140.39</ele>
        <time>2023-09-26T13:34:08Z</time>
      </trkpt>
      <trkpt lat="44.79615" lon="1.59706">
        <ele>140.21</ele>
        <time>2023-09-26T13:34:15Z</time>
      </trkpt>
      <trkpt lat="44.79609" lon="1.59696">
        <ele>139.95</ele>
        <time>2023-09-26T13:34:22Z</time>
      </trkpt>
      <trkpt lat="44.79603" lon="1.59689">
        <ele>139.74</ele>
        <time>2023-09-26T13:34:29Z</time>
      </trkpt>
      <trkpt lat="44.79596" lon="1.59677">
        <ele>139.57</ele>
        <time>2023-09-26T13:34:37Z</time>
      </trkpt>
      <trkpt lat="44.79589" lon="1.5967">
        <ele>139.49</ele>
        <time>2023-09-26T13:34:44Z</time>
      </trkpt>
      <trkpt lat="44.79582" lon="1.59662">
        <ele>139.38</ele>
        <time>2023-09-26T13:34:51Z</time>
      </trkpt>
      <trkpt lat="44.79574" lon="1.59656">
        <ele>138.98</ele>
        <time>2023-09-26T13:34:58Z</time>
      </trkpt>
      <trkpt lat="44.79567" lon="1.59647">
        <ele>138.85</ele>
        <time>2023-09-26T13:35:05Z</time>
      </trkpt>
      <trkpt lat="44.79561" lon="1.59639">
        <ele>138.71</ele>
        <time>2023-09-26T13:35:12Z</time>
      </trkpt>
      <trkpt lat="44.79553" lon="1.59632">
        <ele>138.55</ele>
        <time>2023-09-26T13:35:20Z</time>
      </trkpt>
      <trkpt lat="44.79549" lon="1.59623">
        <ele>137.53</ele>
        <time>2023-09-26T13:35:41Z</time>
      </trkpt>
      <trkpt lat="44.79539" lon="1.59615">
        <ele>137.32</ele>
        <time>2023-09-26T13:35:53Z</time>
      </trkpt>
      <trkpt lat="44.79533" lon="1.5961">
        <ele>136.9</ele>
        <time>2023-09-26T13:36:09Z</time>
      </trkpt>
      <trkpt lat="44.79521" lon="1.59606">
        <ele>136.7</ele>
        <time>2023-09-26T13:36:17Z</time>
      </trkpt>
      <trkpt lat="44.79507" lon="1.59607">
        <ele>136.29</ele>
        <time>2023-09-26T13:36:25Z</time>
      </trkpt>
      <trkpt lat="44.79498" lon="1.59597">
        <ele>135.9</ele>
        <time>2023-09-26T13:36:33Z</time>
      </trkpt>
      <trkpt lat="44.79489" lon="1.59593">
        <ele>135.73</ele>
        <time>2023-09-26T13:36:41Z</time>
      </trkpt>
      <trkpt lat="44.79481" lon="1.59585">
        <ele>135.34</ele>
        <time>2023-09-26T13:36:50Z</time>
      </trkpt>
      <trkpt lat="44.7947" lon="1.5958">
        <ele>134.85</ele>
        <time>2023-09-26T13:36:59Z</time>
      </trkpt>
      <trkpt lat="44.79459" lon="1.59577">
        <ele>134.47</ele>
        <time>2023-09-26T13:37:08Z</time>
      </trkpt>
      <trkpt lat="44.79451" lon="1.5959">
        <ele>134.11</ele>
        <time>2023-09-26T13:37:22Z</time>
      </trkpt>
      <trkpt lat="44.79438" lon="1.59602">
        <ele>134.04</ele>
        <time>2023-09-26T13:37:36Z</time>
      </trkpt>
      <trkpt lat="44.79427" lon="1.59606">
        <ele>134.06</ele>
        <time>2023-09-26T13:37:52Z</time>
      </trkpt>
      <trkpt lat="44.79407" lon="1.59606">
        <ele>135.24</ele>
        <time>2023-09-26T13:38:04Z</time>
      </trkpt>
      <trkpt lat="44.79392" lon="1.59604">
        <ele>136.4</ele>
        <time>2023-09-26T13:38:14Z</time>
      </trkpt>
      <trkpt lat="44.79382" lon="1.59596">
        <ele>136.84</ele>
        <time>2023-09-26T13:38:23Z</time>
      </trkpt>
      <trkpt lat="44.79373" lon="1.59586">
        <ele>137.71</ele>
        <time>2023-09-26T13:38:32Z</time>
      </trkpt>
      <trkpt lat="44.7936" lon="1.59579">
        <ele>138.53</ele>
        <time>2023-09-26T13:38:43Z</time>
      </trkpt>
      <trkpt lat="44.79353" lon="1.59571">
        <ele>139.24</ele>
        <time>2023-09-26T13:38:53Z</time>
      </trkpt>
      <trkpt lat="44.79345" lon="1.59562">
        <ele>140.21</ele>
        <time>2023-09-26T13:39:03Z</time>
      </trkpt>
      <trkpt lat="44.79335" lon="1.59555">
        <ele>141.77</ele>
        <time>2023-09-26T13:39:12Z</time>
      </trkpt>
      <trkpt lat="44.79329" lon="1.59546">
        <ele>142.79</ele>
        <time>2023-09-26T13:39:20Z</time>
      </trkpt>
      <trkpt lat="44.79322" lon="1.59536">
        <ele>143.99</ele>
        <time>2023-09-26T13:39:29Z</time>
      </trkpt>
      <trkpt lat="44.79316" lon="1.59525">
        <ele>144.54</ele>
        <time>2023-09-26T13:39:37Z</time>
      </trkpt>
      <trkpt lat="44.79309" lon="1.59515">
        <ele>145.23</ele>
        <time>2023-09-26T13:39:45Z</time>
      </trkpt>
      <trkpt lat="44.79306" lon="1.59502">
        <ele>146.34</ele>
        <time>2023-09-26T13:39:53Z</time>
      </trkpt>
      <trkpt lat="44.793" lon="1.59493">
        <ele>147.52</ele>
        <time>2023-09-26T13:40:02Z</time>
      </trkpt>
      <trkpt lat="44.79298" lon="1.59486">
        <ele>148.24</ele>
        <time>2023-09-26T13:40:26Z</time>
      </trkpt>
      <trkpt lat="44.79296" lon="1.59476">
        <ele>148.48</ele>
        <time>2023-09-26T13:40:54Z</time>
      </trkpt>
      <trkpt lat="44.79299" lon="1.59476">
        <ele>148.65</ele>
        <time>2023-09-26T13:41:39Z</time>
      </trkpt>
      <trkpt lat="44.79296" lon="1.59479">
        <ele>148.53</ele>
        <time>2023-09-26T13:42:53Z</time>
      </trkpt>
      <trkpt lat="44.79297" lon="1.59474">
        <ele>149.01</ele>
        <time>2023-09-26T13:43:35Z</time>
      </trkpt>
      <trkpt lat="44.7929" lon="1.59466">
        <ele>149.3</ele>
        <time>2023-09-26T13:43:48Z</time>
      </trkpt>
      <trkpt lat="44.79285" lon="1.59455">
        <ele>150.56</ele>
        <time>2023-09-26T13:44:00Z</time>
      </trkpt>
      <trkpt lat="44.79277" lon="1.59446">
        <ele>151.37</ele>
        <time>2023-09-26T13:44:10Z</time>
      </trkpt>
      <trkpt lat="44.79272" lon="1.59433">
        <ele>151.9</ele>
        <time>2023-09-26T13:44:21Z</time>
      </trkpt>
      <trkpt lat="44.79267" lon="1.59421">
        <ele>152.86</ele>
        <time>2023-09-26T13:44:32Z</time>
      </trkpt>
      <trkpt lat="44.79265" lon="1.59407">
        <ele>153.54</ele>
        <time>2023-09-26T13:44:42Z</time>
      </trkpt>
      <trkpt lat="44.79264" lon="1.59392">
        <ele>154.69</ele>
        <time>2023-09-26T13:44:53Z</time>
      </trkpt>
      <trkpt lat="44.79262" lon="1.59376">
        <ele>155.29</ele>
        <time>2023-09-26T13:45:06Z</time>
      </trkpt>
      <trkpt lat="44.7926" lon="1.59359">
        <ele>156.38</ele>
        <time>2023-09-26T13:45:19Z</time>
      </trkpt>
      <trkpt lat="44.79257" lon="1.59347">
        <ele>157.35</ele>
        <time>2023-09-26T13:45:40Z</time>
      </trkpt>
      <trkpt lat="44.79256" lon="1.59334">
        <ele>157.38</ele>
        <time>2023-09-26T13:45:48Z</time>
      </trkpt>
      <trkpt lat="44.79257" lon="1.59321">
        <ele>158.19</ele>
        <time>2023-09-26T13:45:57Z</time>
      </trkpt>
      <trkpt lat="44.79258" lon="1.59307">
        <ele>158.8</ele>
        <time>2023-09-26T13:46:06Z</time>
      </trkpt>
      <trkpt lat="44.79256" lon="1.59292">
        <ele>159.73</ele>
        <time>2023-09-26T13:46:15Z</time>
      </trkpt>
      <trkpt lat="44.79261" lon="1.59279">
        <ele>160.43</ele>
        <time>2023-09-26T13:46:24Z</time>
      </trkpt>
      <trkpt lat="44.79263" lon="1.59267">
        <ele>161.12</ele>
        <time>2023-09-26T13:46:33Z</time>
      </trkpt>
      <trkpt lat="44.79264" lon="1.59254">
        <ele>162.02</ele>
        <time>2023-09-26T13:46:42Z</time>
      </trkpt>
      <trkpt lat="44.79266" lon="1.59239">
        <ele>162.66</ele>
        <time>2023-09-26T13:46:51Z</time>
      </trkpt>
      <trkpt lat="44.79269" lon="1.59226">
        <ele>163.52</ele>
        <time>2023-09-26T13:47:01Z</time>
      </trkpt>
      <trkpt lat="44.79271" lon="1.59213">
        <ele>164.24</ele>
        <time>2023-09-26T13:47:10Z</time>
      </trkpt>
      <trkpt lat="44.79276" lon="1.59199">
        <ele>164.9</ele>
        <time>2023-09-26T13:47:20Z</time>
      </trkpt>
      <trkpt lat="44.7928" lon="1.59187">
        <ele>165.81</ele>
        <time>2023-09-26T13:47:29Z</time>
      </trkpt>
      <trkpt lat="44.79282" lon="1.59174">
        <ele>166.36</ele>
        <time>2023-09-26T13:47:38Z</time>
      </trkpt>
      <trkpt lat="44.79284" lon="1.5916">
        <ele>167.2</ele>
        <time>2023-09-26T13:47:47Z</time>
      </trkpt>
      <trkpt lat="44.79285" lon="1.59146">
        <ele>168.16</ele>
        <time>2023-09-26T13:47:57Z</time>
      </trkpt>
      <trkpt lat="44.79281" lon="1.59149">
        <ele>169.24</ele>
        <time>2023-09-26T13:48:11Z</time>
      </trkpt>
      <trkpt lat="44.79282" lon="1.59151">
        <ele>169.17</ele>
        <time>2023-09-26T13:48:53Z</time>
      </trkpt>
      <trkpt lat="44.7928" lon="1.59148">
        <ele>169.07</ele>
        <time>2023-09-26T13:49:38Z</time>
      </trkpt>
      <trkpt lat="44.79284" lon="1.5915">
        <ele>169.03</ele>
        <time>2023-09-26T13:50:54Z</time>
      </trkpt>
      <trkpt lat="44.79284" lon="1.59143">
        <ele>168.64</ele>
        <time>2023-09-26T13:53:33Z</time>
      </trkpt>
      <trkpt lat="44.79285" lon="1.59128">
        <ele>168.53</ele>
        <time>2023-09-26T13:53:42Z</time>
      </trkpt>
      <trkpt lat="44.79283" lon="1.59115">
        <ele>168.4</ele>
        <time>2023-09-26T13:53:50Z</time>
      </trkpt>
      <trkpt lat="44.79281" lon="1.59101">
        <ele>167.81</ele>
        <time>2023-09-26T13:53:59Z</time>
      </trkpt>
      <trkpt lat="44.79281" lon="1.59088">
        <ele>166.88</ele>
        <time>2023-09-26T13:54:06Z</time>
      </trkpt>
      <trkpt lat="44.79282" lon="1.59074">
        <ele>166.2</ele>
        <time>2023-09-26T13:54:14Z</time>
      </trkpt>
      <trkpt lat="44.79284" lon="1.5906">
        <ele>165.7</ele>
        <time>2023-09-26T13:54:22Z</time>
      </trkpt>
      <trkpt lat="44.79284" lon="1.59047">
        <ele>165.45</ele>
        <time>2023-09-26T13:54:30Z</time>
      </trkpt>
      <trkpt lat="44.79285" lon="1.59034">
        <ele>165.05</ele>
        <time>2023-09-26T13:54:38Z</time>
      </trkpt>
      <trkpt lat="44.79284" lon="1.59023">
        <ele>164.6</ele>
        <time>2023-09-26T13:54:45Z</time>
      </trkpt>
      <trkpt lat="44.79283" lon="1.59009">
        <ele>163.71</ele>
        <time>2023-09-26T13:54:53Z</time>
      </trkpt>
      <trkpt lat="44.79283" lon="1.58996">
        <ele>163.46</ele>
        <time>2023-09-26T13:55:01Z</time>
      </trkpt>
      <trkpt lat="44.79282" lon="1.58984">
        <ele>162.68</ele>
        <time>2023-09-26T13:55:09Z</time>
      </trkpt>
      <trkpt lat="44.7928" lon="1.58969">
        <ele>161.96</ele>
        <time>2023-09-26T13:55:17Z</time>
      </trkpt>
      <trkpt lat="44.79278" lon="1.58955">
        <ele>161.07</ele>
        <time>2023-09-26T13:55:25Z</time>
      </trkpt>
      <trkpt lat="44.79277" lon="1.58941">
        <ele>160.03</ele>
        <time>2023-09-26T13:55:33Z</time>
      </trkpt>
      <trkpt lat="44.79277" lon="1.58928">
        <ele>158.91</ele>
        <time>2023-09-26T13:55:41Z</time>
      </trkpt>
      <trkpt lat="44.79278" lon="1.58915">
        <ele>158.22</ele>
        <time>2023-09-26T13:55:49Z</time>
      </trkpt>
      <trkpt lat="44.79278" lon="1.589">
        <ele>157.6</ele>
        <time>2023-09-26T13:55:57Z</time>
      </trkpt>
      <trkpt lat="44.79278" lon="1.58887">
        <ele>156.55</ele>
        <time>2023-09-26T13:56:05Z</time>
      </trkpt>
      <trkpt lat="44.79278" lon="1.58873">
        <ele>156.31</ele>
        <time>2023-09-26T13:56:13Z</time>
      </trkpt>
      <trkpt lat="44.79277" lon="1.58858">
        <ele>155.92</ele>
        <time>2023-09-26T13:56:21Z</time>
      </trkpt>
      <trkpt lat="44.79277" lon="1.58845">
        <ele>155.02</ele>
        <time>2023-09-26T13:56:29Z</time>
      </trkpt>
      <trkpt lat="44.79276" lon="1.58832">
        <ele>154.46</ele>
        <time>2023-09-26T13:56:37Z</time>
      </trkpt>
      <trkpt lat="44.79274" lon="1.58819">
        <ele>153.79</ele>
        <time>2023-09-26T13:56:45Z</time>
      </trkpt>
      <trkpt lat="44.79272" lon="1.58806">
        <ele>153.56</ele>
        <time>2023-09-26T13:56:53Z</time>
      </trkpt>
      <trkpt lat="44.79271" lon="1.58792">
        <ele>152.71</ele>
        <time>2023-09-26T13:57:02Z</time>
      </trkpt>
      <trkpt lat="44.79269" lon="1.58778">
        <ele>152.13</ele>
        <time>2023-09-26T13:57:10Z</time>
      </trkpt>
      <trkpt lat="44.79268" lon="1.58764">
        <ele>151.46</ele>
        <time>2023-09-26T13:57:18Z</time>
      </trkpt>
      <trkpt lat="44.79266" lon="1.58751">
        <ele>150.83</ele>
        <time>2023-09-26T13:57:26Z</time>
      </trkpt>
      <trkpt lat="44.79264" lon="1.58737">
        <ele>150.35</ele>
        <time>2023-09-26T13:57:34Z</time>
      </trkpt>
      <trkpt lat="44.79262" lon="1.58724">
        <ele>150.02</ele>
        <time>2023-09-26T13:57:42Z</time>
      </trkpt>
      <trkpt lat="44.79261" lon="1.5871">
        <ele>149.67</ele>
        <time>2023-09-26T13:57:50Z</time>
      </trkpt>
      <trkpt lat="44.7926" lon="1.58696">
        <ele>149.06</ele>
        <time>2023-09-26T13:57:58Z</time>
      </trkpt>
      <trkpt lat="44.79258" lon="1.58681">
        <ele>148.56</ele>
        <time>2023-09-26T13:58:06Z</time>
      </trkpt>
      <trkpt lat="44.79255" lon="1.58667">
        <ele>148.06</ele>
        <time>2023-09-26T13:58:15Z</time>
      </trkpt>
      <trkpt lat="44.79252" lon="1.58652">
        <ele>147.91</ele>
        <time>2023-09-26T13:58:23Z</time>
      </trkpt>
      <trkpt lat="44.79249" lon="1.58638">
        <ele>147.5</ele>
        <time>2023-09-26T13:58:31Z</time>
      </trkpt>
      <trkpt lat="44.79247" lon="1.58627">
        <ele>146.97</ele>
        <time>2023-09-26T13:58:39Z</time>
      </trkpt>
      <trkpt lat="44.79243" lon="1.58615">
        <ele>146.47</ele>
        <time>2023-09-26T13:58:47Z</time>
      </trkpt>
      <trkpt lat="44.79238" lon="1.58602">
        <ele>145.91</ele>
        <time>2023-09-26T13:58:55Z</time>
      </trkpt>
      <trkpt lat="44.79231" lon="1.58591">
        <ele>145.01</ele>
        <time>2023-09-26T13:59:04Z</time>
      </trkpt>
      <trkpt lat="44.79224" lon="1.58581">
        <ele>143.11</ele>
        <time>2023-09-26T13:59:22Z</time>
      </trkpt>
      <trkpt lat="44.79217" lon="1.58571">
        <ele>142.07</ele>
        <time>2023-09-26T13:59:31Z</time>
      </trkpt>
      <trkpt lat="44.7921" lon="1.58562">
        <ele>141.04</ele>
        <time>2023-09-26T13:59:40Z</time>
      </trkpt>
      <trkpt lat="44.79202" lon="1.58555">
        <ele>139.74</ele>
        <time>2023-09-26T13:59:48Z</time>
      </trkpt>
      <trkpt lat="44.79193" lon="1.5855">
        <ele>138.82</ele>
        <time>2023-09-26T13:59:57Z</time>
      </trkpt>
      <trkpt lat="44.79182" lon="1.58543">
        <ele>137.76</ele>
        <time>2023-09-26T14:00:06Z</time>
      </trkpt>
      <trkpt lat="44.79174" lon="1.58535">
        <ele>137.17</ele>
        <time>2023-09-26T14:00:14Z</time>
      </trkpt>
      <trkpt lat="44.79168" lon="1.58525">
        <ele>136.12</ele>
        <time>2023-09-26T14:00:22Z</time>
      </trkpt>
      <trkpt lat="44.79162" lon="1.58516">
        <ele>134.91</ele>
        <time>2023-09-26T14:00:30Z</time>
      </trkpt>
      <trkpt lat="44.79155" lon="1.58504">
        <ele>133.9</ele>
        <time>2023-09-26T14:00:39Z</time>
      </trkpt>
      <trkpt lat="44.79153" lon="1.58493">
        <ele>132.36</ele>
        <time>2023-09-26T14:00:51Z</time>
      </trkpt>
      <trkpt lat="44.79145" lon="1.58482">
        <ele>131.91</ele>
        <time>2023-09-26T14:01:01Z</time>
      </trkpt>
      <trkpt lat="44.7914" lon="1.58472">
        <ele>130.9</ele>
        <time>2023-09-26T14:01:09Z</time>
      </trkpt>
      <trkpt lat="44.79132" lon="1.58462">
        <ele>129.41</ele>
        <time>2023-09-26T14:01:18Z</time>
      </trkpt>
      <trkpt lat="44.79123" lon="1.58456">
        <ele>127.89</ele>
        <time>2023-09-26T14:01:26Z</time>
      </trkpt>
      <trkpt lat="44.79115" lon="1.58449">
        <ele>126.6</ele>
        <time>2023-09-26T14:01:34Z</time>
      </trkpt>
      <trkpt lat="44.79102" lon="1.58447">
        <ele>125.13</ele>
        <time>2023-09-26T14:01:42Z</time>
      </trkpt>
      <trkpt lat="44.79094" lon="1.5844">
        <ele>123.42</ele>
        <time>2023-09-26T14:01:50Z</time>
      </trkpt>
      <trkpt lat="44.79088" lon="1.58431">
        <ele>122.08</ele>
        <time>2023-09-26T14:01:59Z</time>
      </trkpt>
      <trkpt lat="44.79077" lon="1.58425">
        <ele>120.55</ele>
        <time>2023-09-26T14:02:09Z</time>
      </trkpt>
      <trkpt lat="44.79065" lon="1.58421">
        <ele>118.72</ele>
        <time>2023-09-26T14:02:18Z</time>
      </trkpt>
      <trkpt lat="44.79057" lon="1.58414">
        <ele>117.47</ele>
        <time>2023-09-26T14:02:26Z</time>
      </trkpt>
      <trkpt lat="44.79048" lon="1.58407">
        <ele>116.7</ele>
        <time>2023-09-26T14:02:36Z</time>
      </trkpt>
      <trkpt lat="44.79056" lon="1.58407">
        <ele>114.98</ele>
        <time>2023-09-26T14:02:57Z</time>
      </trkpt>
      <trkpt lat="44.79065" lon="1.58408">
        <ele>114.77</ele>
        <time>2023-09-26T14:03:13Z</time>
      </trkpt>
      <trkpt lat="44.79063" lon="1.58409">
        <ele>114.66</ele>
        <time>2023-09-26T14:03:34Z</time>
      </trkpt>
      <trkpt lat="44.79059" lon="1.58405">
        <ele>114.76</ele>
        <time>2023-09-26T14:04:28Z</time>
      </trkpt>
      <trkpt lat="44.7906" lon="1.58404">
        <ele>114.94</ele>
        <time>2023-09-26T14:05:14Z</time>
      </trkpt>
      <trkpt lat="44.79052" lon="1.58407">
        <ele>114.89</ele>
        <time>2023-09-26T14:05:37Z</time>
      </trkpt>
      <trkpt lat="44.79048" lon="1.58405">
        <ele>114.5</ele>
        <time>2023-09-26T14:06:07Z</time>
      </trkpt>
      <trkpt lat="44.79046" lon="1.58413">
        <ele>113.85</ele>
        <time>2023-09-26T14:06:29Z</time>
      </trkpt>
      <trkpt lat="44.79048" lon="1.58429">
        <ele>113.37</ele>
        <time>2023-09-26T14:06:40Z</time>
      </trkpt>
      <trkpt lat="44.79055" lon="1.5844">
        <ele>113.52</ele>
        <time>2023-09-26T14:06:53Z</time>
      </trkpt>
      <trkpt lat="44.79059" lon="1.58452">
        <ele>113.96</ele>
        <time>2023-09-26T14:07:04Z</time>
      </trkpt>
      <trkpt lat="44.79063" lon="1.58458">
        <ele>114.84</ele>
        <time>2023-09-26T14:07:19Z</time>
      </trkpt>
      <trkpt lat="44.79054" lon="1.58456">
        <ele>115.32</ele>
        <time>2023-09-26T14:07:35Z</time>
      </trkpt>
      <trkpt lat="44.79043" lon="1.58452">
        <ele>115.99</ele>
        <time>2023-09-26T14:07:48Z</time>
      </trkpt>
      <trkpt lat="44.79034" lon="1.58455">
        <ele>115.66</ele>
        <time>2023-09-26T14:08:02Z</time>
      </trkpt>
      <trkpt lat="44.7902" lon="1.58456">
        <ele>115.07</ele>
        <time>2023-09-26T14:08:14Z</time>
      </trkpt>
      <trkpt lat="44.79006" lon="1.58454">
        <ele>115.11</ele>
        <time>2023-09-26T14:08:27Z</time>
      </trkpt>
      <trkpt lat="44.78998" lon="1.58445">
        <ele>115.32</ele>
        <time>2023-09-26T14:08:41Z</time>
      </trkpt>
      <trkpt lat="44.78996" lon="1.58429">
        <ele>116.39</ele>
        <time>2023-09-26T14:08:52Z</time>
      </trkpt>
      <trkpt lat="44.78992" lon="1.58416">
        <ele>115.81</ele>
        <time>2023-09-26T14:09:02Z</time>
      </trkpt>
      <trkpt lat="44.7899" lon="1.58402">
        <ele>115.21</ele>
        <time>2023-09-26T14:09:14Z</time>
      </trkpt>
      <trkpt lat="44.78989" lon="1.58385">
        <ele>114.87</ele>
        <time>2023-09-26T14:09:26Z</time>
      </trkpt>
      <trkpt lat="44.78987" lon="1.58372">
        <ele>116.55</ele>
        <time>2023-09-26T14:09:38Z</time>
      </trkpt>
      <trkpt lat="44.78989" lon="1.5836">
        <ele>118.09</ele>
        <time>2023-09-26T14:09:51Z</time>
      </trkpt>
      <trkpt lat="44.78991" lon="1.58343">
        <ele>119.74</ele>
        <time>2023-09-26T14:10:09Z</time>
      </trkpt>
      <trkpt lat="44.78995" lon="1.58329">
        <ele>120.88</ele>
        <time>2023-09-26T14:10:22Z</time>
      </trkpt>
      <trkpt lat="44.79" lon="1.58318">
        <ele>121.79</ele>
        <time>2023-09-26T14:10:34Z</time>
      </trkpt>
      <trkpt lat="44.79004" lon="1.58305">
        <ele>122.87</ele>
        <time>2023-09-26T14:10:46Z</time>
      </trkpt>
      <trkpt lat="44.7901" lon="1.58292">
        <ele>124.12</ele>
        <time>2023-09-26T14:10:58Z</time>
      </trkpt>
      <trkpt lat="44.79012" lon="1.58275">
        <ele>125.67</ele>
        <time>2023-09-26T14:11:12Z</time>
      </trkpt>
      <trkpt lat="44.79011" lon="1.58254">
        <ele>125.77</ele>
        <time>2023-09-26T14:11:24Z</time>
      </trkpt>
      <trkpt lat="44.79007" lon="1.58237">
        <ele>125.58</ele>
        <time>2023-09-26T14:11:37Z</time>
      </trkpt>
      <trkpt lat="44.79002" lon="1.58223">
        <ele>124.94</ele>
        <time>2023-09-26T14:11:47Z</time>
      </trkpt>
      <trkpt lat="44.78998" lon="1.58209">
        <ele>124.35</ele>
        <time>2023-09-26T14:11:56Z</time>
      </trkpt>
      <trkpt lat="44.78996" lon="1.58196">
        <ele>123.68</ele>
        <time>2023-09-26T14:12:06Z</time>
      </trkpt>
      <trkpt lat="44.78992" lon="1.58179">
        <ele>122.85</ele>
        <time>2023-09-26T14:12:16Z</time>
      </trkpt>
      <trkpt lat="44.78987" lon="1.58161">
        <ele>122.19</ele>
        <time>2023-09-26T14:12:26Z</time>
      </trkpt>
      <trkpt lat="44.78983" lon="1.58149">
        <ele>122.17</ele>
        <time>2023-09-26T14:12:37Z</time>
      </trkpt>
      <trkpt lat="44.7898" lon="1.58134">
        <ele>121.96</ele>
        <time>2023-09-26T14:12:48Z</time>
      </trkpt>
      <trkpt lat="44.78972" lon="1.5812">
        <ele>121.48</ele>
        <time>2023-09-26T14:12:58Z</time>
      </trkpt>
      <trkpt lat="44.78967" lon="1.58102">
        <ele>120.69</ele>
        <time>2023-09-26T14:13:08Z</time>
      </trkpt>
      <trkpt lat="44.7897" lon="1.58083">
        <ele>120.41</ele>
        <time>2023-09-26T14:13:17Z</time>
      </trkpt>
      <trkpt lat="44.7897" lon="1.58065">
        <ele>120.03</ele>
        <time>2023-09-26T14:13:29Z</time>
      </trkpt>
      <trkpt lat="44.7897" lon="1.58047">
        <ele>120.02</ele>
        <time>2023-09-26T14:13:39Z</time>
      </trkpt>
      <trkpt lat="44.78968" lon="1.58033">
        <ele>119.91</ele>
        <time>2023-09-26T14:13:48Z</time>
      </trkpt>
      <trkpt lat="44.78962" lon="1.58014">
        <ele>119.84</ele>
        <time>2023-09-26T14:13:57Z</time>
      </trkpt>
      <trkpt lat="44.78959" lon="1.58">
        <ele>119.69</ele>
        <time>2023-09-26T14:14:05Z</time>
      </trkpt>
      <trkpt lat="44.78956" lon="1.5799">
        <ele>119.32</ele>
        <time>2023-09-26T14:14:13Z</time>
      </trkpt>
      <trkpt lat="44.78953" lon="1.57976">
        <ele>118.7</ele>
        <time>2023-09-26T14:14:22Z</time>
      </trkpt>
      <trkpt lat="44.78953" lon="1.57963">
        <ele>117.97</ele>
        <time>2023-09-26T14:14:31Z</time>
      </trkpt>
      <trkpt lat="44.78956" lon="1.57952">
        <ele>116.87</ele>
        <time>2023-09-26T14:14:43Z</time>
      </trkpt>
      <trkpt lat="44.78957" lon="1.57937">
        <ele>115.56</ele>
        <time>2023-09-26T14:14:54Z</time>
      </trkpt>
      <trkpt lat="44.78955" lon="1.57919">
        <ele>114.03</ele>
        <time>2023-09-26T14:15:05Z</time>
      </trkpt>
      <trkpt lat="44.78951" lon="1.57898">
        <ele>113</ele>
        <time>2023-09-26T14:15:17Z</time>
      </trkpt>
      <trkpt lat="44.78953" lon="1.57881">
        <ele>111.88</ele>
        <time>2023-09-26T14:15:26Z</time>
      </trkpt>
      <trkpt lat="44.78954" lon="1.57867">
        <ele>110.94</ele>
        <time>2023-09-26T14:15:36Z</time>
      </trkpt>
      <trkpt lat="44.7895" lon="1.57849">
        <ele>110.84</ele>
        <time>2023-09-26T14:15:47Z</time>
      </trkpt>
      <trkpt lat="44.7895" lon="1.57833">
        <ele>110.99</ele>
        <time>2023-09-26T14:15:58Z</time>
      </trkpt>
      <trkpt lat="44.78955" lon="1.57816">
        <ele>111.1</ele>
        <time>2023-09-26T14:16:08Z</time>
      </trkpt>
      <trkpt lat="44.78955" lon="1.57798">
        <ele>111.47</ele>
        <time>2023-09-26T14:16:20Z</time>
      </trkpt>
      <trkpt lat="44.78957" lon="1.57784">
        <ele>111.71</ele>
        <time>2023-09-26T14:16:31Z</time>
      </trkpt>
      <trkpt lat="44.78968" lon="1.57779">
        <ele>111.95</ele>
        <time>2023-09-26T14:16:45Z</time>
      </trkpt>
      <trkpt lat="44.78965" lon="1.57765">
        <ele>111.99</ele>
        <time>2023-09-26T14:16:56Z</time>
      </trkpt>
      <trkpt lat="44.78959" lon="1.57747">
        <ele>112.38</ele>
        <time>2023-09-26T14:17:06Z</time>
      </trkpt>
      <trkpt lat="44.78956" lon="1.57733">
        <ele>112.78</ele>
        <time>2023-09-26T14:17:15Z</time>
      </trkpt>
      <trkpt lat="44.78959" lon="1.5772">
        <ele>113.46</ele>
        <time>2023-09-26T14:17:24Z</time>
      </trkpt>
      <trkpt lat="44.78958" lon="1.57711">
        <ele>115.37</ele>
        <time>2023-09-26T14:17:41Z</time>
      </trkpt>
      <trkpt lat="44.78959" lon="1.57696">
        <ele>115.84</ele>
        <time>2023-09-26T14:17:52Z</time>
      </trkpt>
      <trkpt lat="44.78959" lon="1.57681">
        <ele>117.19</ele>
        <time>2023-09-26T14:18:04Z</time>
      </trkpt>
      <trkpt lat="44.78961" lon="1.57667">
        <ele>118.35</ele>
        <time>2023-09-26T14:18:16Z</time>
      </trkpt>
      <trkpt lat="44.78969" lon="1.57656">
        <ele>119.45</ele>
        <time>2023-09-26T14:18:28Z</time>
      </trkpt>
      <trkpt lat="44.78972" lon="1.57642">
        <ele>120.93</ele>
        <time>2023-09-26T14:18:40Z</time>
      </trkpt>
      <trkpt lat="44.7898" lon="1.57635">
        <ele>122.56</ele>
        <time>2023-09-26T14:18:51Z</time>
      </trkpt>
      <trkpt lat="44.78986" lon="1.57627">
        <ele>123.21</ele>
        <time>2023-09-26T14:19:02Z</time>
      </trkpt>
      <trkpt lat="44.78993" lon="1.57617">
        <ele>124.81</ele>
        <time>2023-09-26T14:19:16Z</time>
      </trkpt>
      <trkpt lat="44.79004" lon="1.57605">
        <ele>125.49</ele>
        <time>2023-09-26T14:19:27Z</time>
      </trkpt>
      <trkpt lat="44.79005" lon="1.57596">
        <ele>125.59</ele>
        <time>2023-09-26T14:19:36Z</time>
      </trkpt>
      <trkpt lat="44.79008" lon="1.57581">
        <ele>125.89</ele>
        <time>2023-09-26T14:19:45Z</time>
      </trkpt>
      <trkpt lat="44.79012" lon="1.57566">
        <ele>126.62</ele>
        <time>2023-09-26T14:19:56Z</time>
      </trkpt>
      <trkpt lat="44.79017" lon="1.57551">
        <ele>127.86</ele>
        <time>2023-09-26T14:20:08Z</time>
      </trkpt>
      <trkpt lat="44.79023" lon="1.57539">
        <ele>129.07</ele>
        <time>2023-09-26T14:20:19Z</time>
      </trkpt>
      <trkpt lat="44.79028" lon="1.57522">
        <ele>130.54</ele>
        <time>2023-09-26T14:20:33Z</time>
      </trkpt>
      <trkpt lat="44.79034" lon="1.57507">
        <ele>131.49</ele>
        <time>2023-09-26T14:20:45Z</time>
      </trkpt>
      <trkpt lat="44.79044" lon="1.57498">
        <ele>131.93</ele>
        <time>2023-09-26T14:20:56Z</time>
      </trkpt>
      <trkpt lat="44.79049" lon="1.57486">
        <ele>132.24</ele>
        <time>2023-09-26T14:21:07Z</time>
      </trkpt>
      <trkpt lat="44.79061" lon="1.57471">
        <ele>132.48</ele>
        <time>2023-09-26T14:21:20Z</time>
      </trkpt>
      <trkpt lat="44.79068" lon="1.57457">
        <ele>132.34</ele>
        <time>2023-09-26T14:21:31Z</time>
      </trkpt>
      <trkpt lat="44.79072" lon="1.57443">
        <ele>132.85</ele>
        <time>2023-09-26T14:21:43Z</time>
      </trkpt>
      <trkpt lat="44.79083" lon="1.57429">
        <ele>133.5</ele>
        <time>2023-09-26T14:21:54Z</time>
      </trkpt>
      <trkpt lat="44.79093" lon="1.57419">
        <ele>133.88</ele>
        <time>2023-09-26T14:22:04Z</time>
      </trkpt>
      <trkpt lat="44.79105" lon="1.5741">
        <ele>134.06</ele>
        <time>2023-09-26T14:22:14Z</time>
      </trkpt>
      <trkpt lat="44.79114" lon="1.57399">
        <ele>133.99</ele>
        <time>2023-09-26T14:22:24Z</time>
      </trkpt>
      <trkpt lat="44.79123" lon="1.5739">
        <ele>133.42</ele>
        <time>2023-09-26T14:22:34Z</time>
      </trkpt>
      <trkpt lat="44.79133" lon="1.5738">
        <ele>133.42</ele>
        <time>2023-09-26T14:22:44Z</time>
      </trkpt>
      <trkpt lat="44.79139" lon="1.57369">
        <ele>133.44</ele>
        <time>2023-09-26T14:22:53Z</time>
      </trkpt>
      <trkpt lat="44.79146" lon="1.57356">
        <ele>133.14</ele>
        <time>2023-09-26T14:23:02Z</time>
      </trkpt>
      <trkpt lat="44.7915" lon="1.57344">
        <ele>133.02</ele>
        <time>2023-09-26T14:23:10Z</time>
      </trkpt>
      <trkpt lat="44.79153" lon="1.57331">
        <ele>132.88</ele>
        <time>2023-09-26T14:23:18Z</time>
      </trkpt>
      <trkpt lat="44.79158" lon="1.57319">
        <ele>132.8</ele>
        <time>2023-09-26T14:23:27Z</time>
      </trkpt>
      <trkpt lat="44.79161" lon="1.57305">
        <ele>132.7</ele>
        <time>2023-09-26T14:23:36Z</time>
      </trkpt>
      <trkpt lat="44.79162" lon="1.57291">
        <ele>132.29</ele>
        <time>2023-09-26T14:23:45Z</time>
      </trkpt>
      <trkpt lat="44.79163" lon="1.57277">
        <ele>132.11</ele>
        <time>2023-09-26T14:23:54Z</time>
      </trkpt>
      <trkpt lat="44.79162" lon="1.57261">
        <ele>131.94</ele>
        <time>2023-09-26T14:24:03Z</time>
      </trkpt>
      <trkpt lat="44.79162" lon="1.57247">
        <ele>131.91</ele>
        <time>2023-09-26T14:24:13Z</time>
      </trkpt>
      <trkpt lat="44.79163" lon="1.57232">
        <ele>131.81</ele>
        <time>2023-09-26T14:24:23Z</time>
      </trkpt>
      <trkpt lat="44.79161" lon="1.57215">
        <ele>131.48</ele>
        <time>2023-09-26T14:24:33Z</time>
      </trkpt>
      <trkpt lat="44.79158" lon="1.572">
        <ele>130.78</ele>
        <time>2023-09-26T14:24:43Z</time>
      </trkpt>
      <trkpt lat="44.79158" lon="1.57188">
        <ele>130.74</ele>
        <time>2023-09-26T14:25:08Z</time>
      </trkpt>
      <trkpt lat="44.79156" lon="1.57175">
        <ele>130.7</ele>
        <time>2023-09-26T14:25:27Z</time>
      </trkpt>
      <trkpt lat="44.7915" lon="1.57163">
        <ele>130.87</ele>
        <time>2023-09-26T14:25:37Z</time>
      </trkpt>
      <trkpt lat="44.79147" lon="1.57148">
        <ele>131.2</ele>
        <time>2023-09-26T14:25:47Z</time>
      </trkpt>
      <trkpt lat="44.79141" lon="1.57135">
        <ele>131.31</ele>
        <time>2023-09-26T14:25:55Z</time>
      </trkpt>
      <trkpt lat="44.79137" lon="1.57125">
        <ele>131.36</ele>
        <time>2023-09-26T14:26:03Z</time>
      </trkpt>
      <trkpt lat="44.79129" lon="1.57115">
        <ele>131.05</ele>
        <time>2023-09-26T14:26:13Z</time>
      </trkpt>
      <trkpt lat="44.79121" lon="1.57107">
        <ele>129.87</ele>
        <time>2023-09-26T14:26:22Z</time>
      </trkpt>
      <trkpt lat="44.79113" lon="1.571">
        <ele>128.32</ele>
        <time>2023-09-26T14:26:30Z</time>
      </trkpt>
      <trkpt lat="44.79104" lon="1.57097">
        <ele>126.8</ele>
        <time>2023-09-26T14:26:38Z</time>
      </trkpt>
      <trkpt lat="44.79095" lon="1.57091">
        <ele>125.47</ele>
        <time>2023-09-26T14:26:48Z</time>
      </trkpt>
      <trkpt lat="44.79085" lon="1.57083">
        <ele>124.95</ele>
        <time>2023-09-26T14:26:57Z</time>
      </trkpt>
      <trkpt lat="44.79076" lon="1.57071">
        <ele>124.88</ele>
        <time>2023-09-26T14:27:07Z</time>
      </trkpt>
      <trkpt lat="44.7907" lon="1.5706">
        <ele>125.13</ele>
        <time>2023-09-26T14:27:17Z</time>
      </trkpt>
      <trkpt lat="44.79066" lon="1.57053">
        <ele>125.85</ele>
        <time>2023-09-26T14:27:42Z</time>
      </trkpt>
      <trkpt lat="44.79064" lon="1.57042">
        <ele>125.62</ele>
        <time>2023-09-26T14:28:15Z</time>
      </trkpt>
      <trkpt lat="44.79071" lon="1.57031">
        <ele>124.95</ele>
        <time>2023-09-26T14:28:27Z</time>
      </trkpt>
      <trkpt lat="44.79086" lon="1.57021">
        <ele>123.23</ele>
        <time>2023-09-26T14:28:43Z</time>
      </trkpt>
      <trkpt lat="44.79098" lon="1.5701">
        <ele>121.69</ele>
        <time>2023-09-26T14:28:53Z</time>
      </trkpt>
      <trkpt lat="44.79102" lon="1.56996">
        <ele>120.29</ele>
        <time>2023-09-26T14:29:03Z</time>
      </trkpt>
      <trkpt lat="44.79101" lon="1.5698">
        <ele>119.26</ele>
        <time>2023-09-26T14:29:13Z</time>
      </trkpt>
      <trkpt lat="44.79098" lon="1.56966">
        <ele>118.28</ele>
        <time>2023-09-26T14:29:23Z</time>
      </trkpt>
      <trkpt lat="44.79099" lon="1.56952">
        <ele>117.28</ele>
        <time>2023-09-26T14:29:32Z</time>
      </trkpt>
      <trkpt lat="44.79099" lon="1.56936">
        <ele>116.75</ele>
        <time>2023-09-26T14:29:41Z</time>
      </trkpt>
      <trkpt lat="44.79098" lon="1.5692">
        <ele>116.25</ele>
        <time>2023-09-26T14:29:50Z</time>
      </trkpt>
      <trkpt lat="44.79093" lon="1.56907">
        <ele>115.4</ele>
        <time>2023-09-26T14:30:02Z</time>
      </trkpt>
      <trkpt lat="44.79083" lon="1.56908">
        <ele>115.36</ele>
        <time>2023-09-26T14:30:13Z</time>
      </trkpt>
      <trkpt lat="44.79075" lon="1.56911">
        <ele>114.38</ele>
        <time>2023-09-26T14:30:26Z</time>
      </trkpt>
      <trkpt lat="44.79067" lon="1.56915">
        <ele>112.37</ele>
        <time>2023-09-26T14:30:45Z</time>
      </trkpt>
      <trkpt lat="44.79065" lon="1.56897">
        <ele>110.92</ele>
        <time>2023-09-26T14:31:01Z</time>
      </trkpt>
      <trkpt lat="44.79065" lon="1.56904">
        <ele>110.95</ele>
        <time>2023-09-26T14:31:18Z</time>
      </trkpt>
      <trkpt lat="44.79059" lon="1.56916">
        <ele>110.95</ele>
        <time>2023-09-26T14:31:34Z</time>
      </trkpt>
      <trkpt lat="44.79051" lon="1.56913">
        <ele>110.94</ele>
        <time>2023-09-26T14:31:46Z</time>
      </trkpt>
      <trkpt lat="44.79051" lon="1.56921">
        <ele>111.13</ele>
        <time>2023-09-26T14:32:02Z</time>
      </trkpt>
      <trkpt lat="44.79036" lon="1.56917">
        <ele>111.21</ele>
        <time>2023-09-26T14:32:16Z</time>
      </trkpt>
      <trkpt lat="44.79025" lon="1.56914">
        <ele>111.1</ele>
        <time>2023-09-26T14:32:27Z</time>
      </trkpt>
      <trkpt lat="44.7902" lon="1.56906">
        <ele>111.12</ele>
        <time>2023-09-26T14:32:44Z</time>
      </trkpt>
      <trkpt lat="44.79009" lon="1.56897">
        <ele>111.18</ele>
        <time>2023-09-26T14:32:58Z</time>
      </trkpt>
      <trkpt lat="44.79013" lon="1.569">
        <ele>111.18</ele>
        <time>2023-09-26T14:33:19Z</time>
      </trkpt>
      <trkpt lat="44.7902" lon="1.56901">
        <ele>111.08</ele>
        <time>2023-09-26T14:33:38Z</time>
      </trkpt>
      <trkpt lat="44.79017" lon="1.56899">
        <ele>111.08</ele>
        <time>2023-09-26T14:34:03Z</time>
      </trkpt>
      <trkpt lat="44.79019" lon="1.56886">
        <ele>110.91</ele>
        <time>2023-09-26T14:34:16Z</time>
      </trkpt>
      <trkpt lat="44.79025" lon="1.56871">
        <ele>110.83</ele>
        <time>2023-09-26T14:34:28Z</time>
      </trkpt>
      <trkpt lat="44.79033" lon="1.56855">
        <ele>111.51</ele>
        <time>2023-09-26T14:34:41Z</time>
      </trkpt>
      <trkpt lat="44.79043" lon="1.56857">
        <ele>111.92</ele>
        <time>2023-09-26T14:35:00Z</time>
      </trkpt>
      <trkpt lat="44.79044" lon="1.56856">
        <ele>111.81</ele>
        <time>2023-09-26T14:35:31Z</time>
      </trkpt>
      <trkpt lat="44.79038" lon="1.56855">
        <ele>111.96</ele>
        <time>2023-09-26T14:35:47Z</time>
      </trkpt>
      <trkpt lat="44.79038" lon="1.5686">
        <ele>112.76</ele>
        <time>2023-09-26T14:36:19Z</time>
      </trkpt>
      <trkpt lat="44.79037" lon="1.56854">
        <ele>112.68</ele>
        <time>2023-09-26T14:36:39Z</time>
      </trkpt>
      <trkpt lat="44.79041" lon="1.56855">
        <ele>111.84</ele>
        <time>2023-09-26T14:37:01Z</time>
      </trkpt>
      <trkpt lat="44.79048" lon="1.56847">
        <ele>112.9</ele>
        <time>2023-09-26T14:37:19Z</time>
      </trkpt>
      <trkpt lat="44.79056" lon="1.56838">
        <ele>114.62</ele>
        <time>2023-09-26T14:37:35Z</time>
      </trkpt>
      <trkpt lat="44.79067" lon="1.56822">
        <ele>115.86</ele>
        <time>2023-09-26T14:37:48Z</time>
      </trkpt>
      <trkpt lat="44.79078" lon="1.56813">
        <ele>117.38</ele>
        <time>2023-09-26T14:38:00Z</time>
      </trkpt>
      <trkpt lat="44.79086" lon="1.56802">
        <ele>118.7</ele>
        <time>2023-09-26T14:38:14Z</time>
      </trkpt>
      <trkpt lat="44.79093" lon="1.56794">
        <ele>120.57</ele>
        <time>2023-09-26T14:38:27Z</time>
      </trkpt>
      <trkpt lat="44.79106" lon="1.56792">
        <ele>121.82</ele>
        <time>2023-09-26T14:38:38Z</time>
      </trkpt>
      <trkpt lat="44.79121" lon="1.56792">
        <ele>122.95</ele>
        <time>2023-09-26T14:38:50Z</time>
      </trkpt>
      <trkpt lat="44.79137" lon="1.5679">
        <ele>123.69</ele>
        <time>2023-09-26T14:39:02Z</time>
      </trkpt>
      <trkpt lat="44.79152" lon="1.56793">
        <ele>124.97</ele>
        <time>2023-09-26T14:39:16Z</time>
      </trkpt>
      <trkpt lat="44.79164" lon="1.568">
        <ele>126</ele>
        <time>2023-09-26T14:39:26Z</time>
      </trkpt>
      <trkpt lat="44.79175" lon="1.56809">
        <ele>126.3</ele>
        <time>2023-09-26T14:39:37Z</time>
      </trkpt>
      <trkpt lat="44.79185" lon="1.56815">
        <ele>126.26</ele>
        <time>2023-09-26T14:39:47Z</time>
      </trkpt>
      <trkpt lat="44.79193" lon="1.56814">
        <ele>126.25</ele>
        <time>2023-09-26T14:39:56Z</time>
      </trkpt>
      <trkpt lat="44.79199" lon="1.56807">
        <ele>125.76</ele>
        <time>2023-09-26T14:40:06Z</time>
      </trkpt>
      <trkpt lat="44.79207" lon="1.56798">
        <ele>125.41</ele>
        <time>2023-09-26T14:40:17Z</time>
      </trkpt>
      <trkpt lat="44.79216" lon="1.56791">
        <ele>125.25</ele>
        <time>2023-09-26T14:40:26Z</time>
      </trkpt>
      <trkpt lat="44.79224" lon="1.56788">
        <ele>125.12</ele>
        <time>2023-09-26T14:40:34Z</time>
      </trkpt>
      <trkpt lat="44.79214" lon="1.56795">
        <ele>124.73</ele>
        <time>2023-09-26T14:40:55Z</time>
      </trkpt>
      <trkpt lat="44.79208" lon="1.56804">
        <ele>124.78</ele>
        <time>2023-09-26T14:41:05Z</time>
      </trkpt>
      <trkpt lat="44.792" lon="1.56813">
        <ele>125.04</ele>
        <time>2023-09-26T14:41:21Z</time>
      </trkpt>
      <trkpt lat="44.79195" lon="1.56821">
        <ele>124.97</ele>
        <time>2023-09-26T14:41:34Z</time>
      </trkpt>
      <trkpt lat="44.79193" lon="1.56826">
        <ele>124.5</ele>
        <time>2023-09-26T14:41:52Z</time>
      </trkpt>
      <trkpt lat="44.79189" lon="1.56829">
        <ele>124.3</ele>
        <time>2023-09-26T14:42:11Z</time>
      </trkpt>
      <trkpt lat="44.79187" lon="1.56838">
        <ele>122.53</ele>
        <time>2023-09-26T14:42:38Z</time>
      </trkpt>
      <trkpt lat="44.79189" lon="1.5683">
        <ele>121.76</ele>
        <time>2023-09-26T14:42:55Z</time>
      </trkpt>
      <trkpt lat="44.79182" lon="1.56817">
        <ele>123.77</ele>
        <time>2023-09-26T14:43:09Z</time>
      </trkpt>
      <trkpt lat="44.79175" lon="1.56813">
        <ele>124.94</ele>
        <time>2023-09-26T14:43:19Z</time>
      </trkpt>
      <trkpt lat="44.79166" lon="1.56811">
        <ele>124.62</ele>
        <time>2023-09-26T14:43:29Z</time>
      </trkpt>
      <trkpt lat="44.79156" lon="1.56809">
        <ele>123.08</ele>
        <time>2023-09-26T14:43:39Z</time>
      </trkpt>
      <trkpt lat="44.79147" lon="1.56811">
        <ele>121.86</ele>
        <time>2023-09-26T14:43:48Z</time>
      </trkpt>
      <trkpt lat="44.79138" lon="1.56805">
        <ele>120.84</ele>
        <time>2023-09-26T14:43:59Z</time>
      </trkpt>
      <trkpt lat="44.79128" lon="1.5681">
        <ele>117.85</ele>
        <time>2023-09-26T14:44:18Z</time>
      </trkpt>
      <trkpt lat="44.79134" lon="1.56818">
        <ele>113.79</ele>
        <time>2023-09-26T14:44:34Z</time>
      </trkpt>
      <trkpt lat="44.7914" lon="1.56828">
        <ele>110.22</ele>
        <time>2023-09-26T14:44:47Z</time>
      </trkpt>
      <trkpt lat="44.79127" lon="1.56832">
        <ele>107.73</ele>
        <time>2023-09-26T14:44:58Z</time>
      </trkpt>
      <trkpt lat="44.79115" lon="1.56833">
        <ele>107.65</ele>
        <time>2023-09-26T14:45:07Z</time>
      </trkpt>
      <trkpt lat="44.79105" lon="1.56834">
        <ele>107.65</ele>
        <time>2023-09-26T14:45:16Z</time>
      </trkpt>
      <trkpt lat="44.79093" lon="1.56839">
        <ele>107.71</ele>
        <time>2023-09-26T14:45:25Z</time>
      </trkpt>
      <trkpt lat="44.79083" lon="1.56843">
        <ele>107.81</ele>
        <time>2023-09-26T14:45:35Z</time>
      </trkpt>
      <trkpt lat="44.79074" lon="1.56852">
        <ele>107.98</ele>
        <time>2023-09-26T14:45:44Z</time>
      </trkpt>
      <trkpt lat="44.79064" lon="1.56862">
        <ele>108.24</ele>
        <time>2023-09-26T14:45:55Z</time>
      </trkpt>
      <trkpt lat="44.79054" lon="1.5687">
        <ele>108.35</ele>
        <time>2023-09-26T14:46:06Z</time>
      </trkpt>
      <trkpt lat="44.79043" lon="1.56871">
        <ele>108.63</ele>
        <time>2023-09-26T14:46:16Z</time>
      </trkpt>
      <trkpt lat="44.79033" lon="1.56872">
        <ele>109.18</ele>
        <time>2023-09-26T14:46:29Z</time>
      </trkpt>
      <trkpt lat="44.79038" lon="1.5687">
        <ele>109.72</ele>
        <time>2023-09-26T14:46:55Z</time>
      </trkpt>
      <trkpt lat="44.79032" lon="1.56867">
        <ele>109.7</ele>
        <time>2023-09-26T14:47:13Z</time>
      </trkpt>
      <trkpt lat="44.7903" lon="1.56853">
        <ele>109.74</ele>
        <time>2023-09-26T14:47:26Z</time>
      </trkpt>
      <trkpt lat="44.7903" lon="1.56855">
        <ele>109.79</ele>
        <time>2023-09-26T14:47:40Z</time>
      </trkpt>
      <trkpt lat="44.79033" lon="1.5687">
        <ele>109.79</ele>
        <time>2023-09-26T14:48:03Z</time>
      </trkpt>
      <trkpt lat="44.79039" lon="1.56873">
        <ele>109.84</ele>
        <time>2023-09-26T14:48:26Z</time>
      </trkpt>
      <trkpt lat="44.79045" lon="1.56871">
        <ele>109.58</ele>
        <time>2023-09-26T14:48:41Z</time>
      </trkpt>
      <trkpt lat="44.79041" lon="1.56886">
        <ele>108.67</ele>
        <time>2023-09-26T14:48:51Z</time>
      </trkpt>
      <trkpt lat="44.7903" lon="1.56893">
        <ele>108.42</ele>
        <time>2023-09-26T14:49:02Z</time>
      </trkpt>
      <trkpt lat="44.79022" lon="1.5689">
        <ele>108.53</ele>
        <time>2023-09-26T14:49:17Z</time>
      </trkpt>
      <trkpt lat="44.79032" lon="1.56881">
        <ele>108.46</ele>
        <time>2023-09-26T14:49:35Z</time>
      </trkpt>
      <trkpt lat="44.79033" lon="1.56877">
        <ele>108.46</ele>
        <time>2023-09-26T14:49:53Z</time>
      </trkpt>
      <trkpt lat="44.79035" lon="1.56895">
        <ele>108.36</ele>
        <time>2023-09-26T14:50:10Z</time>
      </trkpt>
      <trkpt lat="44.79028" lon="1.56894">
        <ele>108.42</ele>
        <time>2023-09-26T14:50:24Z</time>
      </trkpt>
      <trkpt lat="44.79025" lon="1.56905">
        <ele>108.21</ele>
        <time>2023-09-26T14:50:45Z</time>
      </trkpt>
      <trkpt lat="44.79035" lon="1.56915">
        <ele>108.21</ele>
        <time>2023-09-26T14:51:00Z</time>
      </trkpt>
      <trkpt lat="44.7905" lon="1.56914">
        <ele>108.34</ele>
        <time>2023-09-26T14:51:14Z</time>
      </trkpt>
      <trkpt lat="44.79062" lon="1.5691">
        <ele>108.83</ele>
        <time>2023-09-26T14:51:27Z</time>
      </trkpt>
      <trkpt lat="44.79074" lon="1.56904">
        <ele>109.15</ele>
        <time>2023-09-26T14:51:41Z</time>
      </trkpt>
      <trkpt lat="44.79091" lon="1.56903">
        <ele>110.88</ele>
        <time>2023-09-26T14:51:56Z</time>
      </trkpt>
      <trkpt lat="44.79101" lon="1.56911">
        <ele>111.7</ele>
        <time>2023-09-26T14:52:07Z</time>
      </trkpt>
      <trkpt lat="44.79103" lon="1.56925">
        <ele>111.71</ele>
        <time>2023-09-26T14:52:16Z</time>
      </trkpt>
      <trkpt lat="44.79103" lon="1.56941">
        <ele>112.18</ele>
        <time>2023-09-26T14:52:27Z</time>
      </trkpt>
      <trkpt lat="44.79103" lon="1.56955">
        <ele>112.77</ele>
        <time>2023-09-26T14:52:36Z</time>
      </trkpt>
      <trkpt lat="44.79105" lon="1.5697">
        <ele>113.49</ele>
        <time>2023-09-26T14:52:46Z</time>
      </trkpt>
      <trkpt lat="44.79106" lon="1.56986">
        <ele>114.02</ele>
        <time>2023-09-26T14:52:58Z</time>
      </trkpt>
      <trkpt lat="44.79104" lon="1.57003">
        <ele>114.73</ele>
        <time>2023-09-26T14:53:09Z</time>
      </trkpt>
      <trkpt lat="44.79097" lon="1.57015">
        <ele>115.83</ele>
        <time>2023-09-26T14:53:24Z</time>
      </trkpt>
      <trkpt lat="44.79086" lon="1.5702">
        <ele>117</ele>
        <time>2023-09-26T14:53:37Z</time>
      </trkpt>
      <trkpt lat="44.79076" lon="1.5703">
        <ele>118.18</ele>
        <time>2023-09-26T14:53:49Z</time>
      </trkpt>
      <trkpt lat="44.79071" lon="1.57041">
        <ele>119.43</ele>
        <time>2023-09-26T14:54:03Z</time>
      </trkpt>
      <trkpt lat="44.79071" lon="1.57047">
        <ele>119.77</ele>
        <time>2023-09-26T14:54:48Z</time>
      </trkpt>
      <trkpt lat="44.7907" lon="1.57055">
        <ele>119.58</ele>
        <time>2023-09-26T14:55:09Z</time>
      </trkpt>
      <trkpt lat="44.79076" lon="1.57073">
        <ele>118.95</ele>
        <time>2023-09-26T14:55:19Z</time>
      </trkpt>
      <trkpt lat="44.79085" lon="1.57085">
        <ele>118.41</ele>
        <time>2023-09-26T14:55:30Z</time>
      </trkpt>
      <trkpt lat="44.79095" lon="1.57092">
        <ele>118.22</ele>
        <time>2023-09-26T14:55:41Z</time>
      </trkpt>
      <trkpt lat="44.79106" lon="1.57098">
        <ele>118.41</ele>
        <time>2023-09-26T14:55:53Z</time>
      </trkpt>
      <trkpt lat="44.79117" lon="1.57104">
        <ele>119.57</ele>
        <time>2023-09-26T14:56:05Z</time>
      </trkpt>
      <trkpt lat="44.79124" lon="1.57113">
        <ele>120.98</ele>
        <time>2023-09-26T14:56:17Z</time>
      </trkpt>
      <trkpt lat="44.79135" lon="1.57121">
        <ele>122.59</ele>
        <time>2023-09-26T14:56:29Z</time>
      </trkpt>
      <trkpt lat="44.79144" lon="1.57124">
        <ele>123.36</ele>
        <time>2023-09-26T14:56:54Z</time>
      </trkpt>
      <trkpt lat="44.79145" lon="1.57137">
        <ele>123.16</ele>
        <time>2023-09-26T14:57:09Z</time>
      </trkpt>
      <trkpt lat="44.79148" lon="1.57152">
        <ele>123.13</ele>
        <time>2023-09-26T14:57:17Z</time>
      </trkpt>
      <trkpt lat="44.79152" lon="1.57166">
        <ele>122.97</ele>
        <time>2023-09-26T14:57:26Z</time>
      </trkpt>
      <trkpt lat="44.79154" lon="1.57178">
        <ele>122.85</ele>
        <time>2023-09-26T14:57:33Z</time>
      </trkpt>
      <trkpt lat="44.79156" lon="1.57191">
        <ele>122.79</ele>
        <time>2023-09-26T14:57:41Z</time>
      </trkpt>
      <trkpt lat="44.7916" lon="1.57203">
        <ele>122.33</ele>
        <time>2023-09-26T14:57:49Z</time>
      </trkpt>
      <trkpt lat="44.79162" lon="1.57217">
        <ele>122.25</ele>
        <time>2023-09-26T14:57:57Z</time>
      </trkpt>
      <trkpt lat="44.79161" lon="1.57232">
        <ele>122.53</ele>
        <time>2023-09-26T14:58:06Z</time>
      </trkpt>
      <trkpt lat="44.79161" lon="1.57246">
        <ele>122.74</ele>
        <time>2023-09-26T14:58:14Z</time>
      </trkpt>
      <trkpt lat="44.79162" lon="1.5726">
        <ele>122.71</ele>
        <time>2023-09-26T14:58:22Z</time>
      </trkpt>
      <trkpt lat="44.79163" lon="1.57275">
        <ele>122.64</ele>
        <time>2023-09-26T14:58:30Z</time>
      </trkpt>
      <trkpt lat="44.79163" lon="1.57289">
        <ele>122.61</ele>
        <time>2023-09-26T14:58:38Z</time>
      </trkpt>
      <trkpt lat="44.79163" lon="1.57302">
        <ele>122.61</ele>
        <time>2023-09-26T14:58:46Z</time>
      </trkpt>
      <trkpt lat="44.79161" lon="1.57317">
        <ele>122.62</ele>
        <time>2023-09-26T14:58:54Z</time>
      </trkpt>
      <trkpt lat="44.79158" lon="1.5733">
        <ele>122.84</ele>
        <time>2023-09-26T14:59:03Z</time>
      </trkpt>
      <trkpt lat="44.79154" lon="1.57344">
        <ele>123.04</ele>
        <time>2023-09-26T14:59:11Z</time>
      </trkpt>
      <trkpt lat="44.79148" lon="1.57357">
        <ele>123.06</ele>
        <time>2023-09-26T14:59:20Z</time>
      </trkpt>
      <trkpt lat="44.7914" lon="1.57368">
        <ele>123.09</ele>
        <time>2023-09-26T14:59:31Z</time>
      </trkpt>
      <trkpt lat="44.79132" lon="1.57379">
        <ele>123.37</ele>
        <time>2023-09-26T14:59:46Z</time>
      </trkpt>
      <trkpt lat="44.79122" lon="1.57388">
        <ele>123.28</ele>
        <time>2023-09-26T14:59:57Z</time>
      </trkpt>
      <trkpt lat="44.79111" lon="1.57395">
        <ele>123.18</ele>
        <time>2023-09-26T15:00:07Z</time>
      </trkpt>
      <trkpt lat="44.79102" lon="1.57409">
        <ele>123.21</ele>
        <time>2023-09-26T15:00:19Z</time>
      </trkpt>
      <trkpt lat="44.79092" lon="1.57427">
        <ele>123.53</ele>
        <time>2023-09-26T15:00:30Z</time>
      </trkpt>
      <trkpt lat="44.79084" lon="1.5744">
        <ele>123.47</ele>
        <time>2023-09-26T15:00:40Z</time>
      </trkpt>
      <trkpt lat="44.79076" lon="1.57453">
        <ele>122.95</ele>
        <time>2023-09-26T15:00:50Z</time>
      </trkpt>
      <trkpt lat="44.79068" lon="1.57465">
        <ele>122.26</ele>
        <time>2023-09-26T15:01:00Z</time>
      </trkpt>
      <trkpt lat="44.7906" lon="1.57481">
        <ele>121.7</ele>
        <time>2023-09-26T15:01:10Z</time>
      </trkpt>
      <trkpt lat="44.79051" lon="1.57491">
        <ele>121.46</ele>
        <time>2023-09-26T15:01:20Z</time>
      </trkpt>
      <trkpt lat="44.79042" lon="1.57503">
        <ele>121.28</ele>
        <time>2023-09-26T15:01:30Z</time>
      </trkpt>
      <trkpt lat="44.79034" lon="1.57519">
        <ele>120.81</ele>
        <time>2023-09-26T15:01:40Z</time>
      </trkpt>
      <trkpt lat="44.79026" lon="1.57533">
        <ele>120.33</ele>
        <time>2023-09-26T15:01:50Z</time>
      </trkpt>
      <trkpt lat="44.7902" lon="1.57547">
        <ele>119.92</ele>
        <time>2023-09-26T15:01:59Z</time>
      </trkpt>
      <trkpt lat="44.79016" lon="1.5756">
        <ele>118.72</ele>
        <time>2023-09-26T15:02:10Z</time>
      </trkpt>
      <trkpt lat="44.79012" lon="1.57574">
        <ele>117.07</ele>
        <time>2023-09-26T15:02:20Z</time>
      </trkpt>
      <trkpt lat="44.79007" lon="1.57588">
        <ele>115.62</ele>
        <time>2023-09-26T15:02:29Z</time>
      </trkpt>
      <trkpt lat="44.78997" lon="1.576">
        <ele>114.99</ele>
        <time>2023-09-26T15:02:38Z</time>
      </trkpt>
      <trkpt lat="44.78989" lon="1.5761">
        <ele>114.63</ele>
        <time>2023-09-26T15:02:47Z</time>
      </trkpt>
      <trkpt lat="44.78981" lon="1.57621">
        <ele>114.59</ele>
        <time>2023-09-26T15:02:57Z</time>
      </trkpt>
      <trkpt lat="44.78974" lon="1.57635">
        <ele>113.88</ele>
        <time>2023-09-26T15:03:09Z</time>
      </trkpt>
      <trkpt lat="44.78966" lon="1.57653">
        <ele>112.26</ele>
        <time>2023-09-26T15:03:22Z</time>
      </trkpt>
      <trkpt lat="44.7896" lon="1.57671">
        <ele>110.49</ele>
        <time>2023-09-26T15:03:36Z</time>
      </trkpt>
      <trkpt lat="44.78953" lon="1.57689">
        <ele>109.12</ele>
        <time>2023-09-26T15:03:46Z</time>
      </trkpt>
      <trkpt lat="44.7895" lon="1.57705">
        <ele>107.74</ele>
        <time>2023-09-26T15:03:57Z</time>
      </trkpt>
      <trkpt lat="44.78953" lon="1.57724">
        <ele>106.07</ele>
        <time>2023-09-26T15:04:11Z</time>
      </trkpt>
      <trkpt lat="44.7895" lon="1.57742">
        <ele>104.64</ele>
        <time>2023-09-26T15:04:23Z</time>
      </trkpt>
      <trkpt lat="44.78947" lon="1.57763">
        <ele>103.49</ele>
        <time>2023-09-26T15:04:34Z</time>
      </trkpt>
      <trkpt lat="44.78947" lon="1.57782">
        <ele>102.97</ele>
        <time>2023-09-26T15:04:45Z</time>
      </trkpt>
      <trkpt lat="44.78946" lon="1.578">
        <ele>102.67</ele>
        <time>2023-09-26T15:04:55Z</time>
      </trkpt>
      <trkpt lat="44.78944" lon="1.57818">
        <ele>102.36</ele>
        <time>2023-09-26T15:05:04Z</time>
      </trkpt>
      <trkpt lat="44.78944" lon="1.57834">
        <ele>102.18</ele>
        <time>2023-09-26T15:05:13Z</time>
      </trkpt>
      <trkpt lat="44.78944" lon="1.57849">
        <ele>102.05</ele>
        <time>2023-09-26T15:05:21Z</time>
      </trkpt>
      <trkpt lat="44.78946" lon="1.57863">
        <ele>101.94</ele>
        <time>2023-09-26T15:05:29Z</time>
      </trkpt>
      <trkpt lat="44.78947" lon="1.57877">
        <ele>101.83</ele>
        <time>2023-09-26T15:05:37Z</time>
      </trkpt>
      <trkpt lat="44.7895" lon="1.5789">
        <ele>101.71</ele>
        <time>2023-09-26T15:05:46Z</time>
      </trkpt>
      <trkpt lat="44.78954" lon="1.57904">
        <ele>101.86</ele>
        <time>2023-09-26T15:05:56Z</time>
      </trkpt>
      <trkpt lat="44.78955" lon="1.57919">
        <ele>102.68</ele>
        <time>2023-09-26T15:06:10Z</time>
      </trkpt>
      <trkpt lat="44.78953" lon="1.57936">
        <ele>103.86</ele>
        <time>2023-09-26T15:06:22Z</time>
      </trkpt>
      <trkpt lat="44.78955" lon="1.57954">
        <ele>105.03</ele>
        <time>2023-09-26T15:06:37Z</time>
      </trkpt>
      <trkpt lat="44.78956" lon="1.57971">
        <ele>106.93</ele>
        <time>2023-09-26T15:06:53Z</time>
      </trkpt>
      <trkpt lat="44.78958" lon="1.57988">
        <ele>108.48</ele>
        <time>2023-09-26T15:07:09Z</time>
      </trkpt>
      <trkpt lat="44.78958" lon="1.58005">
        <ele>109.6</ele>
        <time>2023-09-26T15:07:21Z</time>
      </trkpt>
      <trkpt lat="44.78962" lon="1.58023">
        <ele>110.25</ele>
        <time>2023-09-26T15:07:33Z</time>
      </trkpt>
      <trkpt lat="44.78969" lon="1.58037">
        <ele>110.69</ele>
        <time>2023-09-26T15:07:45Z</time>
      </trkpt>
      <trkpt lat="44.78973" lon="1.58054">
        <ele>110.88</ele>
        <time>2023-09-26T15:07:58Z</time>
      </trkpt>
      <trkpt lat="44.78977" lon="1.58077">
        <ele>111.07</ele>
        <time>2023-09-26T15:08:09Z</time>
      </trkpt>
      <trkpt lat="44.78977" lon="1.58093">
        <ele>111.37</ele>
        <time>2023-09-26T15:08:21Z</time>
      </trkpt>
      <trkpt lat="44.7898" lon="1.58112">
        <ele>111.98</ele>
        <time>2023-09-26T15:08:37Z</time>
      </trkpt>
      <trkpt lat="44.78984" lon="1.58131">
        <ele>112.4</ele>
        <time>2023-09-26T15:08:50Z</time>
      </trkpt>
      <trkpt lat="44.78988" lon="1.5815">
        <ele>112.69</ele>
        <time>2023-09-26T15:09:03Z</time>
      </trkpt>
      <trkpt lat="44.78992" lon="1.58173">
        <ele>112.34</ele>
        <time>2023-09-26T15:09:14Z</time>
      </trkpt>
      <trkpt lat="44.78996" lon="1.5819">
        <ele>112.33</ele>
        <time>2023-09-26T15:09:25Z</time>
      </trkpt>
      <trkpt lat="44.78999" lon="1.58206">
        <ele>112.92</ele>
        <time>2023-09-26T15:09:36Z</time>
      </trkpt>
      <trkpt lat="44.79001" lon="1.58221">
        <ele>113.74</ele>
        <time>2023-09-26T15:09:47Z</time>
      </trkpt>
      <trkpt lat="44.79006" lon="1.58239">
        <ele>114.62</ele>
        <time>2023-09-26T15:10:00Z</time>
      </trkpt>
      <trkpt lat="44.79008" lon="1.58258">
        <ele>115.64</ele>
        <time>2023-09-26T15:10:12Z</time>
      </trkpt>
      <trkpt lat="44.79011" lon="1.58273">
        <ele>115.76</ele>
        <time>2023-09-26T15:10:22Z</time>
      </trkpt>
      <trkpt lat="44.79009" lon="1.58289">
        <ele>115.79</ele>
        <time>2023-09-26T15:10:37Z</time>
      </trkpt>
      <trkpt lat="44.79003" lon="1.58306">
        <ele>113.84</ele>
        <time>2023-09-26T15:10:49Z</time>
      </trkpt>
      <trkpt lat="44.78997" lon="1.58325">
        <ele>112.18</ele>
        <time>2023-09-26T15:11:02Z</time>
      </trkpt>
      <trkpt lat="44.78995" lon="1.58344">
        <ele>110.55</ele>
        <time>2023-09-26T15:11:17Z</time>
      </trkpt>
      <trkpt lat="44.78993" lon="1.58363">
        <ele>108.89</ele>
        <time>2023-09-26T15:11:29Z</time>
      </trkpt>
      <trkpt lat="44.78992" lon="1.58379">
        <ele>107.49</ele>
        <time>2023-09-26T15:11:40Z</time>
      </trkpt>
      <trkpt lat="44.78995" lon="1.58394">
        <ele>105.33</ele>
        <time>2023-09-26T15:11:51Z</time>
      </trkpt>
      <trkpt lat="44.78998" lon="1.58407">
        <ele>104.26</ele>
        <time>2023-09-26T15:12:01Z</time>
      </trkpt>
      <trkpt lat="44.79002" lon="1.58409">
        <ele>104.09</ele>
        <time>2023-09-26T15:12:24Z</time>
      </trkpt>
      <trkpt lat="44.79" lon="1.58426">
        <ele>104.24</ele>
        <time>2023-09-26T15:12:34Z</time>
      </trkpt>
      <trkpt lat="44.79003" lon="1.5844">
        <ele>104.52</ele>
        <time>2023-09-26T15:12:44Z</time>
      </trkpt>
      <trkpt lat="44.7901" lon="1.58448">
        <ele>105.11</ele>
        <time>2023-09-26T15:12:55Z</time>
      </trkpt>
      <trkpt lat="44.79019" lon="1.5845">
        <ele>104.64</ele>
        <time>2023-09-26T15:13:04Z</time>
      </trkpt>
      <trkpt lat="44.79016" lon="1.58445">
        <ele>104.04</ele>
        <time>2023-09-26T15:13:32Z</time>
      </trkpt>
      <trkpt lat="44.7902" lon="1.58443">
        <ele>103.96</ele>
        <time>2023-09-26T15:13:55Z</time>
      </trkpt>
      <trkpt lat="44.79033" lon="1.5844">
        <ele>104.02</ele>
        <time>2023-09-26T15:14:09Z</time>
      </trkpt>
      <trkpt lat="44.79044" lon="1.58443">
        <ele>105.05</ele>
        <time>2023-09-26T15:14:22Z</time>
      </trkpt>
      <trkpt lat="44.79057" lon="1.58451">
        <ele>105.05</ele>
        <time>2023-09-26T15:14:35Z</time>
      </trkpt>
      <trkpt lat="44.7906" lon="1.58448">
        <ele>103.99</ele>
        <time>2023-09-26T15:14:57Z</time>
      </trkpt>
      <trkpt lat="44.79052" lon="1.58435">
        <ele>103.55</ele>
        <time>2023-09-26T15:15:15Z</time>
      </trkpt>
      <trkpt lat="44.79042" lon="1.58432">
        <ele>102.82</ele>
        <time>2023-09-26T15:15:29Z</time>
      </trkpt>
      <trkpt lat="44.79039" lon="1.58419">
        <ele>102.48</ele>
        <time>2023-09-26T15:15:42Z</time>
      </trkpt>
      <trkpt lat="44.79033" lon="1.58408">
        <ele>102.46</ele>
        <time>2023-09-26T15:15:55Z</time>
      </trkpt>
      <trkpt lat="44.79031" lon="1.58394">
        <ele>102.02</ele>
        <time>2023-09-26T15:16:08Z</time>
      </trkpt>
      <trkpt lat="44.7902" lon="1.58396">
        <ele>101.53</ele>
        <time>2023-09-26T15:16:30Z</time>
      </trkpt>
      <trkpt lat="44.79013" lon="1.58404">
        <ele>100.23</ele>
        <time>2023-09-26T15:16:42Z</time>
      </trkpt>
      <trkpt lat="44.79015" lon="1.58413">
        <ele>100.09</ele>
        <time>2023-09-26T15:17:02Z</time>
      </trkpt>
      <trkpt lat="44.79017" lon="1.58413">
        <ele>99.82</ele>
        <time>2023-09-26T15:17:22Z</time>
      </trkpt>
      <trkpt lat="44.7902" lon="1.58406">
        <ele>100.02</ele>
        <time>2023-09-26T15:17:48Z</time>
      </trkpt>
      <trkpt lat="44.79018" lon="1.58411">
        <ele>100.02</ele>
        <time>2023-09-26T15:18:00Z</time>
      </trkpt>
      <trkpt lat="44.79015" lon="1.58408">
        <ele>100.06</ele>
        <time>2023-09-26T15:18:17Z</time>
      </trkpt>
      <trkpt lat="44.79018" lon="1.58408">
        <ele>100.13</ele>
        <time>2023-09-26T15:18:46Z</time>
      </trkpt>
      <trkpt lat="44.79019" lon="1.58408">
        <ele>100.02</ele>
        <time>2023-09-26T15:19:16Z</time>
      </trkpt>
      <trkpt lat="44.79017" lon="1.58392">
        <ele>99.98</ele>
        <time>2023-09-26T15:19:27Z</time>
      </trkpt>
      <trkpt lat="44.79024" lon="1.58384">
        <ele>99.97</ele>
        <time>2023-09-26T15:19:37Z</time>
      </trkpt>
      <trkpt lat="44.79031" lon="1.58382">
        <ele>100.91</ele>
        <time>2023-09-26T15:19:53Z</time>
      </trkpt>
      <trkpt lat="44.79045" lon="1.58388">
        <ele>102.11</ele>
        <time>2023-09-26T15:20:06Z</time>
      </trkpt>
      <trkpt lat="44.79053" lon="1.58399">
        <ele>103.55</ele>
        <time>2023-09-26T15:20:21Z</time>
      </trkpt>
      <trkpt lat="44.79049" lon="1.58403">
        <ele>103.51</ele>
        <time>2023-09-26T15:20:51Z</time>
      </trkpt>
      <trkpt lat="44.79059" lon="1.58405">
        <ele>103.84</ele>
        <time>2023-09-26T15:21:10Z</time>
      </trkpt>
      <trkpt lat="44.79071" lon="1.58414">
        <ele>105.18</ele>
        <time>2023-09-26T15:21:22Z</time>
      </trkpt>
      <trkpt lat="44.79081" lon="1.58422">
        <ele>106.04</ele>
        <time>2023-09-26T15:21:33Z</time>
      </trkpt>
      <trkpt lat="44.79092" lon="1.58429">
        <ele>107.41</ele>
        <time>2023-09-26T15:21:45Z</time>
      </trkpt>
      <trkpt lat="44.79104" lon="1.58437">
        <ele>109.56</ele>
        <time>2023-09-26T15:22:00Z</time>
      </trkpt>
      <trkpt lat="44.79113" lon="1.58445">
        <ele>111.24</ele>
        <time>2023-09-26T15:22:15Z</time>
      </trkpt>
      <trkpt lat="44.79122" lon="1.58454">
        <ele>113.06</ele>
        <time>2023-09-26T15:22:28Z</time>
      </trkpt>
      <trkpt lat="44.79132" lon="1.58463">
        <ele>114.52</ele>
        <time>2023-09-26T15:22:41Z</time>
      </trkpt>
      <trkpt lat="44.7914" lon="1.58475">
        <ele>116.5</ele>
        <time>2023-09-26T15:22:56Z</time>
      </trkpt>
      <trkpt lat="44.79148" lon="1.58487">
        <ele>117.59</ele>
        <time>2023-09-26T15:23:07Z</time>
      </trkpt>
      <trkpt lat="44.79152" lon="1.58499">
        <ele>118.49</ele>
        <time>2023-09-26T15:23:17Z</time>
      </trkpt>
      <trkpt lat="44.79158" lon="1.58513">
        <ele>119.37</ele>
        <time>2023-09-26T15:23:29Z</time>
      </trkpt>
      <trkpt lat="44.79164" lon="1.58523">
        <ele>120.36</ele>
        <time>2023-09-26T15:23:39Z</time>
      </trkpt>
      <trkpt lat="44.79172" lon="1.58534">
        <ele>121.28</ele>
        <time>2023-09-26T15:23:49Z</time>
      </trkpt>
      <trkpt lat="44.79179" lon="1.58544">
        <ele>122.25</ele>
        <time>2023-09-26T15:24:00Z</time>
      </trkpt>
      <trkpt lat="44.7919" lon="1.58551">
        <ele>123.65</ele>
        <time>2023-09-26T15:24:12Z</time>
      </trkpt>
      <trkpt lat="44.79202" lon="1.58556">
        <ele>124.68</ele>
        <time>2023-09-26T15:24:23Z</time>
      </trkpt>
      <trkpt lat="44.79211" lon="1.58565">
        <ele>125.76</ele>
        <time>2023-09-26T15:24:34Z</time>
      </trkpt>
      <trkpt lat="44.79217" lon="1.58575">
        <ele>126.77</ele>
        <time>2023-09-26T15:24:45Z</time>
      </trkpt>
      <trkpt lat="44.79224" lon="1.58585">
        <ele>128.08</ele>
        <time>2023-09-26T15:24:57Z</time>
      </trkpt>
      <trkpt lat="44.79232" lon="1.58595">
        <ele>129.37</ele>
        <time>2023-09-26T15:25:08Z</time>
      </trkpt>
      <trkpt lat="44.79238" lon="1.58607">
        <ele>130.41</ele>
        <time>2023-09-26T15:25:17Z</time>
      </trkpt>
      <trkpt lat="44.79242" lon="1.5862">
        <ele>130.85</ele>
        <time>2023-09-26T15:25:26Z</time>
      </trkpt>
      <trkpt lat="44.79245" lon="1.58635">
        <ele>131.18</ele>
        <time>2023-09-26T15:25:35Z</time>
      </trkpt>
      <trkpt lat="44.79247" lon="1.58648">
        <ele>131.67</ele>
        <time>2023-09-26T15:25:44Z</time>
      </trkpt>
      <trkpt lat="44.7925" lon="1.58662">
        <ele>132.07</ele>
        <time>2023-09-26T15:25:53Z</time>
      </trkpt>
      <trkpt lat="44.79253" lon="1.58675">
        <ele>132.57</ele>
        <time>2023-09-26T15:26:02Z</time>
      </trkpt>
      <trkpt lat="44.79258" lon="1.5869">
        <ele>133.21</ele>
        <time>2023-09-26T15:26:11Z</time>
      </trkpt>
      <trkpt lat="44.79259" lon="1.58704">
        <ele>133.51</ele>
        <time>2023-09-26T15:26:19Z</time>
      </trkpt>
      <trkpt lat="44.7926" lon="1.58716">
        <ele>133.92</ele>
        <time>2023-09-26T15:26:27Z</time>
      </trkpt>
      <trkpt lat="44.79261" lon="1.58729">
        <ele>134.31</ele>
        <time>2023-09-26T15:26:37Z</time>
      </trkpt>
      <trkpt lat="44.79263" lon="1.58743">
        <ele>134.7</ele>
        <time>2023-09-26T15:26:46Z</time>
      </trkpt>
      <trkpt lat="44.79263" lon="1.58756">
        <ele>135.02</ele>
        <time>2023-09-26T15:26:55Z</time>
      </trkpt>
      <trkpt lat="44.79264" lon="1.5877">
        <ele>135.7</ele>
        <time>2023-09-26T15:27:04Z</time>
      </trkpt>
      <trkpt lat="44.79264" lon="1.58784">
        <ele>136.17</ele>
        <time>2023-09-26T15:27:13Z</time>
      </trkpt>
      <trkpt lat="44.79266" lon="1.58796">
        <ele>136.8</ele>
        <time>2023-09-26T15:27:22Z</time>
      </trkpt>
      <trkpt lat="44.79268" lon="1.58811">
        <ele>137.31</ele>
        <time>2023-09-26T15:27:32Z</time>
      </trkpt>
      <trkpt lat="44.79269" lon="1.58825">
        <ele>137.64</ele>
        <time>2023-09-26T15:27:41Z</time>
      </trkpt>
      <trkpt lat="44.79272" lon="1.58839">
        <ele>138.18</ele>
        <time>2023-09-26T15:27:51Z</time>
      </trkpt>
      <trkpt lat="44.79271" lon="1.58851">
        <ele>138.72</ele>
        <time>2023-09-26T15:28:00Z</time>
      </trkpt>
      <trkpt lat="44.79274" lon="1.58865">
        <ele>139.33</ele>
        <time>2023-09-26T15:28:10Z</time>
      </trkpt>
      <trkpt lat="44.79274" lon="1.58878">
        <ele>140.23</ele>
        <time>2023-09-26T15:28:21Z</time>
      </trkpt>
      <trkpt lat="44.79274" lon="1.58893">
        <ele>140.89</ele>
        <time>2023-09-26T15:28:32Z</time>
      </trkpt>
      <trkpt lat="44.79273" lon="1.58909">
        <ele>141.57</ele>
        <time>2023-09-26T15:28:42Z</time>
      </trkpt>
      <trkpt lat="44.79274" lon="1.58923">
        <ele>142.22</ele>
        <time>2023-09-26T15:28:52Z</time>
      </trkpt>
      <trkpt lat="44.79274" lon="1.58936">
        <ele>142.83</ele>
        <time>2023-09-26T15:29:01Z</time>
      </trkpt>
      <trkpt lat="44.79272" lon="1.58951">
        <ele>143.66</ele>
        <time>2023-09-26T15:29:11Z</time>
      </trkpt>
      <trkpt lat="44.79273" lon="1.58965">
        <ele>144.35</ele>
        <time>2023-09-26T15:29:21Z</time>
      </trkpt>
      <trkpt lat="44.79277" lon="1.5898">
        <ele>145.26</ele>
        <time>2023-09-26T15:29:32Z</time>
      </trkpt>
      <trkpt lat="44.79277" lon="1.58994">
        <ele>145.96</ele>
        <time>2023-09-26T15:29:42Z</time>
      </trkpt>
      <trkpt lat="44.79277" lon="1.59008">
        <ele>146.71</ele>
        <time>2023-09-26T15:29:52Z</time>
      </trkpt>
      <trkpt lat="44.79276" lon="1.59022">
        <ele>147.07</ele>
        <time>2023-09-26T15:30:01Z</time>
      </trkpt>
      <trkpt lat="44.79277" lon="1.59037">
        <ele>147.39</ele>
        <time>2023-09-26T15:30:10Z</time>
      </trkpt>
      <trkpt lat="44.79277" lon="1.59052">
        <ele>147.77</ele>
        <time>2023-09-26T15:30:20Z</time>
      </trkpt>
      <trkpt lat="44.79277" lon="1.59065">
        <ele>148.24</ele>
        <time>2023-09-26T15:30:29Z</time>
      </trkpt>
      <trkpt lat="44.79275" lon="1.59079">
        <ele>148.67</ele>
        <time>2023-09-26T15:30:38Z</time>
      </trkpt>
      <trkpt lat="44.79275" lon="1.59093">
        <ele>149.02</ele>
        <time>2023-09-26T15:30:47Z</time>
      </trkpt>
      <trkpt lat="44.79275" lon="1.59107">
        <ele>149.41</ele>
        <time>2023-09-26T15:30:56Z</time>
      </trkpt>
      <trkpt lat="44.79276" lon="1.5912">
        <ele>149.98</ele>
        <time>2023-09-26T15:31:07Z</time>
      </trkpt>
      <trkpt lat="44.79278" lon="1.59134">
        <ele>151.13</ele>
        <time>2023-09-26T15:31:17Z</time>
      </trkpt>
      <trkpt lat="44.79277" lon="1.59147">
        <ele>151.64</ele>
        <time>2023-09-26T15:31:27Z</time>
      </trkpt>
      <trkpt lat="44.79279" lon="1.59148">
        <ele>151.55</ele>
        <time>2023-09-26T15:32:26Z</time>
      </trkpt>
      <trkpt lat="44.79284" lon="1.59155">
        <ele>151.71</ele>
        <time>2023-09-26T15:33:13Z</time>
      </trkpt>
      <trkpt lat="44.79282" lon="1.59168">
        <ele>151.2</ele>
        <time>2023-09-26T15:33:23Z</time>
      </trkpt>
      <trkpt lat="44.7928" lon="1.59182">
        <ele>150.24</ele>
        <time>2023-09-26T15:33:32Z</time>
      </trkpt>
      <trkpt lat="44.79277" lon="1.59197">
        <ele>149.47</ele>
        <time>2023-09-26T15:33:41Z</time>
      </trkpt>
      <trkpt lat="44.7927" lon="1.59208">
        <ele>148.64</ele>
        <time>2023-09-26T15:33:49Z</time>
      </trkpt>
      <trkpt lat="44.79266" lon="1.59222">
        <ele>147.91</ele>
        <time>2023-09-26T15:33:57Z</time>
      </trkpt>
      <trkpt lat="44.79265" lon="1.59238">
        <ele>146.85</ele>
        <time>2023-09-26T15:34:06Z</time>
      </trkpt>
      <trkpt lat="44.79265" lon="1.59253">
        <ele>145.91</ele>
        <time>2023-09-26T15:34:15Z</time>
      </trkpt>
      <trkpt lat="44.79261" lon="1.59269">
        <ele>145.1</ele>
        <time>2023-09-26T15:34:24Z</time>
      </trkpt>
      <trkpt lat="44.79259" lon="1.59282">
        <ele>144.42</ele>
        <time>2023-09-26T15:34:32Z</time>
      </trkpt>
      <trkpt lat="44.79257" lon="1.59297">
        <ele>143.53</ele>
        <time>2023-09-26T15:34:41Z</time>
      </trkpt>
      <trkpt lat="44.79258" lon="1.59312">
        <ele>142.64</ele>
        <time>2023-09-26T15:34:50Z</time>
      </trkpt>
      <trkpt lat="44.79261" lon="1.59328">
        <ele>141.77</ele>
        <time>2023-09-26T15:34:59Z</time>
      </trkpt>
      <trkpt lat="44.79262" lon="1.59344">
        <ele>140.87</ele>
        <time>2023-09-26T15:35:08Z</time>
      </trkpt>
      <trkpt lat="44.79262" lon="1.59358">
        <ele>140.05</ele>
        <time>2023-09-26T15:35:16Z</time>
      </trkpt>
      <trkpt lat="44.7926" lon="1.59371">
        <ele>139.28</ele>
        <time>2023-09-26T15:35:25Z</time>
      </trkpt>
      <trkpt lat="44.79262" lon="1.59386">
        <ele>138.33</ele>
        <time>2023-09-26T15:35:33Z</time>
      </trkpt>
      <trkpt lat="44.79264" lon="1.59401">
        <ele>137.45</ele>
        <time>2023-09-26T15:35:42Z</time>
      </trkpt>
      <trkpt lat="44.79268" lon="1.59417">
        <ele>136.55</ele>
        <time>2023-09-26T15:35:51Z</time>
      </trkpt>
      <trkpt lat="44.79272" lon="1.59431">
        <ele>135.73</ele>
        <time>2023-09-26T15:36:00Z</time>
      </trkpt>
      <trkpt lat="44.79276" lon="1.59443">
        <ele>134.66</ele>
        <time>2023-09-26T15:36:09Z</time>
      </trkpt>
      <trkpt lat="44.7928" lon="1.59456">
        <ele>133.88</ele>
        <time>2023-09-26T15:36:18Z</time>
      </trkpt>
      <trkpt lat="44.79285" lon="1.5947">
        <ele>132.79</ele>
        <time>2023-09-26T15:36:27Z</time>
      </trkpt>
      <trkpt lat="44.79292" lon="1.59484">
        <ele>131.98</ele>
        <time>2023-09-26T15:36:37Z</time>
      </trkpt>
      <trkpt lat="44.79298" lon="1.59497">
        <ele>130.95</ele>
        <time>2023-09-26T15:36:46Z</time>
      </trkpt>
      <trkpt lat="44.79304" lon="1.5951">
        <ele>130.09</ele>
        <time>2023-09-26T15:36:55Z</time>
      </trkpt>
      <trkpt lat="44.79311" lon="1.59524">
        <ele>128.88</ele>
        <time>2023-09-26T15:37:04Z</time>
      </trkpt>
      <trkpt lat="44.79317" lon="1.59536">
        <ele>127.95</ele>
        <time>2023-09-26T15:37:13Z</time>
      </trkpt>
      <trkpt lat="44.79324" lon="1.59546">
        <ele>127.14</ele>
        <time>2023-09-26T15:37:21Z</time>
      </trkpt>
      <trkpt lat="44.79333" lon="1.59556">
        <ele>126.17</ele>
        <time>2023-09-26T15:37:31Z</time>
      </trkpt>
      <trkpt lat="44.79342" lon="1.59564">
        <ele>125.32</ele>
        <time>2023-09-26T15:37:40Z</time>
      </trkpt>
      <trkpt lat="44.79353" lon="1.59571">
        <ele>124.11</ele>
        <time>2023-09-26T15:37:50Z</time>
      </trkpt>
      <trkpt lat="44.79364" lon="1.59582">
        <ele>122.83</ele>
        <time>2023-09-26T15:38:00Z</time>
      </trkpt>
      <trkpt lat="44.79372" lon="1.59591">
        <ele>121.68</ele>
        <time>2023-09-26T15:38:09Z</time>
      </trkpt>
      <trkpt lat="44.79381" lon="1.59598">
        <ele>120.46</ele>
        <time>2023-09-26T15:38:18Z</time>
      </trkpt>
      <trkpt lat="44.79391" lon="1.59605">
        <ele>119.25</ele>
        <time>2023-09-26T15:38:29Z</time>
      </trkpt>
      <trkpt lat="44.79402" lon="1.59612">
        <ele>117.96</ele>
        <time>2023-09-26T15:38:39Z</time>
      </trkpt>
      <trkpt lat="44.79416" lon="1.59613">
        <ele>117.01</ele>
        <time>2023-09-26T15:38:48Z</time>
      </trkpt>
      <trkpt lat="44.79425" lon="1.59607">
        <ele>115.98</ele>
        <time>2023-09-26T15:38:56Z</time>
      </trkpt>
      <trkpt lat="44.79433" lon="1.59598">
        <ele>114.93</ele>
        <time>2023-09-26T15:39:05Z</time>
      </trkpt>
      <trkpt lat="44.7944" lon="1.59588">
        <ele>114.9</ele>
        <time>2023-09-26T15:39:14Z</time>
      </trkpt>
      <trkpt lat="44.79452" lon="1.59575">
        <ele>115.04</ele>
        <time>2023-09-26T15:39:25Z</time>
      </trkpt>
      <trkpt lat="44.79463" lon="1.5957">
        <ele>115.14</ele>
        <time>2023-09-26T15:39:37Z</time>
      </trkpt>
      <trkpt lat="44.79475" lon="1.59574">
        <ele>115.36</ele>
        <time>2023-09-26T15:39:48Z</time>
      </trkpt>
      <trkpt lat="44.79492" lon="1.59581">
        <ele>115.75</ele>
        <time>2023-09-26T15:39:59Z</time>
      </trkpt>
      <trkpt lat="44.79503" lon="1.59587">
        <ele>116.18</ele>
        <time>2023-09-26T15:40:12Z</time>
      </trkpt>
      <trkpt lat="44.79517" lon="1.59593">
        <ele>116.47</ele>
        <time>2023-09-26T15:40:25Z</time>
      </trkpt>
      <trkpt lat="44.79524" lon="1.59598">
        <ele>116.68</ele>
        <time>2023-09-26T15:40:39Z</time>
      </trkpt>
      <trkpt lat="44.79532" lon="1.59607">
        <ele>116.85</ele>
        <time>2023-09-26T15:40:50Z</time>
      </trkpt>
      <trkpt lat="44.79543" lon="1.5961">
        <ele>117.12</ele>
        <time>2023-09-26T15:41:00Z</time>
      </trkpt>
      <trkpt lat="44.79553" lon="1.59619">
        <ele>117.49</ele>
        <time>2023-09-26T15:41:10Z</time>
      </trkpt>
      <trkpt lat="44.7956" lon="1.59629">
        <ele>117.77</ele>
        <time>2023-09-26T15:41:21Z</time>
      </trkpt>
      <trkpt lat="44.79568" lon="1.5964">
        <ele>118.02</ele>
        <time>2023-09-26T15:41:38Z</time>
      </trkpt>
      <trkpt lat="44.79579" lon="1.5965">
        <ele>118.02</ele>
        <time>2023-09-26T15:41:47Z</time>
      </trkpt>
      <trkpt lat="44.79589" lon="1.59659">
        <ele>118.26</ele>
        <time>2023-09-26T15:41:57Z</time>
      </trkpt>
      <trkpt lat="44.79596" lon="1.59668">
        <ele>118.3</ele>
        <time>2023-09-26T15:42:06Z</time>
      </trkpt>
      <trkpt lat="44.79606" lon="1.59678">
        <ele>118.35</ele>
        <time>2023-09-26T15:42:15Z</time>
      </trkpt>
      <trkpt lat="44.79611" lon="1.5969">
        <ele>118.4</ele>
        <time>2023-09-26T15:42:24Z</time>
      </trkpt>
      <trkpt lat="44.79619" lon="1.597">
        <ele>118.52</ele>
        <time>2023-09-26T15:42:33Z</time>
      </trkpt>
      <trkpt lat="44.79622" lon="1.59714">
        <ele>118.89</ele>
        <time>2023-09-26T15:42:42Z</time>
      </trkpt>
      <trkpt lat="44.79625" lon="1.5973">
        <ele>119.21</ele>
        <time>2023-09-26T15:42:50Z</time>
      </trkpt>
      <trkpt lat="44.79627" lon="1.59742">
        <ele>119.28</ele>
        <time>2023-09-26T15:42:58Z</time>
      </trkpt>
      <trkpt lat="44.79626" lon="1.59756">
        <ele>119.29</ele>
        <time>2023-09-26T15:43:07Z</time>
      </trkpt>
      <trkpt lat="44.79627" lon="1.59771">
        <ele>119.46</ele>
        <time>2023-09-26T15:43:16Z</time>
      </trkpt>
      <trkpt lat="44.79621" lon="1.5979">
        <ele>119.79</ele>
        <time>2023-09-26T15:43:24Z</time>
      </trkpt>
      <trkpt lat="44.79619" lon="1.59807">
        <ele>119.91</ele>
        <time>2023-09-26T15:43:32Z</time>
      </trkpt>
      <trkpt lat="44.79615" lon="1.59821">
        <ele>119.7</ele>
        <time>2023-09-26T15:43:40Z</time>
      </trkpt>
      <trkpt lat="44.79613" lon="1.59835">
        <ele>119.5</ele>
        <time>2023-09-26T15:43:48Z</time>
      </trkpt>
      <trkpt lat="44.79609" lon="1.59849">
        <ele>119.25</ele>
        <time>2023-09-26T15:43:56Z</time>
      </trkpt>
      <trkpt lat="44.79602" lon="1.59858">
        <ele>119.22</ele>
        <time>2023-09-26T15:44:05Z</time>
      </trkpt>
      <trkpt lat="44.79595" lon="1.59868">
        <ele>119.38</ele>
        <time>2023-09-26T15:44:15Z</time>
      </trkpt>
      <trkpt lat="44.79588" lon="1.59884">
        <ele>119.73</ele>
        <time>2023-09-26T15:44:25Z</time>
      </trkpt>
      <trkpt lat="44.7958" lon="1.59892">
        <ele>119.75</ele>
        <time>2023-09-26T15:44:34Z</time>
      </trkpt>
      <trkpt lat="44.79569" lon="1.59898">
        <ele>119.5</ele>
        <time>2023-09-26T15:44:45Z</time>
      </trkpt>
      <trkpt lat="44.79556" lon="1.59901">
        <ele>119.19</ele>
        <time>2023-09-26T15:44:55Z</time>
      </trkpt>
      <trkpt lat="44.79541" lon="1.59908">
        <ele>119.13</ele>
        <time>2023-09-26T15:45:07Z</time>
      </trkpt>
      <trkpt lat="44.79531" lon="1.59914">
        <ele>119.31</ele>
        <time>2023-09-26T15:45:17Z</time>
      </trkpt>
      <trkpt lat="44.79523" lon="1.59927">
        <ele>119.88</ele>
        <time>2023-09-26T15:45:26Z</time>
      </trkpt>
      <trkpt lat="44.79514" lon="1.59935">
        <ele>120.5</ele>
        <time>2023-09-26T15:45:36Z</time>
      </trkpt>
      <trkpt lat="44.79502" lon="1.59941">
        <ele>120.95</ele>
        <time>2023-09-26T15:45:45Z</time>
      </trkpt>
      <trkpt lat="44.79493" lon="1.5995">
        <ele>121.15</ele>
        <time>2023-09-26T15:45:54Z</time>
      </trkpt>
      <trkpt lat="44.79483" lon="1.59955">
        <ele>121.11</ele>
        <time>2023-09-26T15:46:04Z</time>
      </trkpt>
      <trkpt lat="44.79473" lon="1.59958">
        <ele>120.86</ele>
        <time>2023-09-26T15:46:14Z</time>
      </trkpt>
      <trkpt lat="44.79463" lon="1.59971">
        <ele>120.68</ele>
        <time>2023-09-26T15:46:24Z</time>
      </trkpt>
      <trkpt lat="44.79455" lon="1.5998">
        <ele>120.65</ele>
        <time>2023-09-26T15:46:33Z</time>
      </trkpt>
      <trkpt lat="44.79448" lon="1.59989">
        <ele>120.64</ele>
        <time>2023-09-26T15:46:43Z</time>
      </trkpt>
      <trkpt lat="44.79443" lon="1.6">
        <ele>120.54</ele>
        <time>2023-09-26T15:46:52Z</time>
      </trkpt>
      <trkpt lat="44.79439" lon="1.60014">
        <ele>120.58</ele>
        <time>2023-09-26T15:47:01Z</time>
      </trkpt>
      <trkpt lat="44.79435" lon="1.60026">
        <ele>120.72</ele>
        <time>2023-09-26T15:47:10Z</time>
      </trkpt>
      <trkpt lat="44.79432" lon="1.60041">
        <ele>120.78</ele>
        <time>2023-09-26T15:47:19Z</time>
      </trkpt>
      <trkpt lat="44.79431" lon="1.60057">
        <ele>120.84</ele>
        <time>2023-09-26T15:47:27Z</time>
      </trkpt>
      <trkpt lat="44.79431" lon="1.6007">
        <ele>120.83</ele>
        <time>2023-09-26T15:47:35Z</time>
      </trkpt>
      <trkpt lat="44.79431" lon="1.60085">
        <ele>120.58</ele>
        <time>2023-09-26T15:47:43Z</time>
      </trkpt>
      <trkpt lat="44.79432" lon="1.60099">
        <ele>120.37</ele>
        <time>2023-09-26T15:47:50Z</time>
      </trkpt>
      <trkpt lat="44.79432" lon="1.60108">
        <ele>119.84</ele>
        <time>2023-09-26T15:47:58Z</time>
      </trkpt>
      <trkpt lat="44.79434" lon="1.60119">
        <ele>119.27</ele>
        <time>2023-09-26T15:48:06Z</time>
      </trkpt>
      <trkpt lat="44.79441" lon="1.60131">
        <ele>118.87</ele>
        <time>2023-09-26T15:48:15Z</time>
      </trkpt>
      <trkpt lat="44.79446" lon="1.60144">
        <ele>118.8</ele>
        <time>2023-09-26T15:48:24Z</time>
      </trkpt>
      <trkpt lat="44.79458" lon="1.60154">
        <ele>118.84</ele>
        <time>2023-09-26T15:48:33Z</time>
      </trkpt>
      <trkpt lat="44.79463" lon="1.60167">
        <ele>118.86</ele>
        <time>2023-09-26T15:48:42Z</time>
      </trkpt>
      <trkpt lat="44.79468" lon="1.60177">
        <ele>118.91</ele>
        <time>2023-09-26T15:48:51Z</time>
      </trkpt>
      <trkpt lat="44.79474" lon="1.60191">
        <ele>119.03</ele>
        <time>2023-09-26T15:49:00Z</time>
      </trkpt>
      <trkpt lat="44.79478" lon="1.60205">
        <ele>119.22</ele>
        <time>2023-09-26T15:49:09Z</time>
      </trkpt>
      <trkpt lat="44.79483" lon="1.60217">
        <ele>119.47</ele>
        <time>2023-09-26T15:49:18Z</time>
      </trkpt>
      <trkpt lat="44.79488" lon="1.60228">
        <ele>119.69</ele>
        <time>2023-09-26T15:49:26Z</time>
      </trkpt>
      <trkpt lat="44.79495" lon="1.60239">
        <ele>119.8</ele>
        <time>2023-09-26T15:49:35Z</time>
      </trkpt>
      <trkpt lat="44.79501" lon="1.60249">
        <ele>119.98</ele>
        <time>2023-09-26T15:49:44Z</time>
      </trkpt>
      <trkpt lat="44.79507" lon="1.60262">
        <ele>120.11</ele>
        <time>2023-09-26T15:49:53Z</time>
      </trkpt>
      <trkpt lat="44.79512" lon="1.60273">
        <ele>120.26</ele>
        <time>2023-09-26T15:50:02Z</time>
      </trkpt>
      <trkpt lat="44.79523" lon="1.60284">
        <ele>120.35</ele>
        <time>2023-09-26T15:50:11Z</time>
      </trkpt>
      <trkpt lat="44.79527" lon="1.60295">
        <ele>120.42</ele>
        <time>2023-09-26T15:50:20Z</time>
      </trkpt>
      <trkpt lat="44.79531" lon="1.60307">
        <ele>120.44</ele>
        <time>2023-09-26T15:50:29Z</time>
      </trkpt>
      <trkpt lat="44.79539" lon="1.60318">
        <ele>120.44</ele>
        <time>2023-09-26T15:50:38Z</time>
      </trkpt>
      <trkpt lat="44.79544" lon="1.60332">
        <ele>120.44</ele>
        <time>2023-09-26T15:50:46Z</time>
      </trkpt>
      <trkpt lat="44.79548" lon="1.60345">
        <ele>120.47</ele>
        <time>2023-09-26T15:50:54Z</time>
      </trkpt>
      <trkpt lat="44.79553" lon="1.60358">
        <ele>120.54</ele>
        <time>2023-09-26T15:51:03Z</time>
      </trkpt>
      <trkpt lat="44.79563" lon="1.60366">
        <ele>120.61</ele>
        <time>2023-09-26T15:51:12Z</time>
      </trkpt>
      <trkpt lat="44.79573" lon="1.60379">
        <ele>120.94</ele>
        <time>2023-09-26T15:51:22Z</time>
      </trkpt>
      <trkpt lat="44.79577" lon="1.60392">
        <ele>121.28</ele>
        <time>2023-09-26T15:51:29Z</time>
      </trkpt>
      <trkpt lat="44.79583" lon="1.60406">
        <ele>121.63</ele>
        <time>2023-09-26T15:51:37Z</time>
      </trkpt>
      <trkpt lat="44.79586" lon="1.60421">
        <ele>122.19</ele>
        <time>2023-09-26T15:51:45Z</time>
      </trkpt>
      <trkpt lat="44.79582" lon="1.60439">
        <ele>122.56</ele>
        <time>2023-09-26T15:51:54Z</time>
      </trkpt>
      <trkpt lat="44.7958" lon="1.60452">
        <ele>122.73</ele>
        <time>2023-09-26T15:52:04Z</time>
      </trkpt>
      <trkpt lat="44.79575" lon="1.6047">
        <ele>122.8</ele>
        <time>2023-09-26T15:52:14Z</time>
      </trkpt>
      <trkpt lat="44.7957" lon="1.60484">
        <ele>122.71</ele>
        <time>2023-09-26T15:52:23Z</time>
      </trkpt>
      <trkpt lat="44.79567" lon="1.60499">
        <ele>122.56</ele>
        <time>2023-09-26T15:52:32Z</time>
      </trkpt>
      <trkpt lat="44.79564" lon="1.60514">
        <ele>122.57</ele>
        <time>2023-09-26T15:52:41Z</time>
      </trkpt>
      <trkpt lat="44.7956" lon="1.60528">
        <ele>122.6</ele>
        <time>2023-09-26T15:52:49Z</time>
      </trkpt>
      <trkpt lat="44.79556" lon="1.60539">
        <ele>122.74</ele>
        <time>2023-09-26T15:52:58Z</time>
      </trkpt>
      <trkpt lat="44.79549" lon="1.60552">
        <ele>122.91</ele>
        <time>2023-09-26T15:53:07Z</time>
      </trkpt>
      <trkpt lat="44.7954" lon="1.60562">
        <ele>123.06</ele>
        <time>2023-09-26T15:53:15Z</time>
      </trkpt>
      <trkpt lat="44.79533" lon="1.60574">
        <ele>123.63</ele>
        <time>2023-09-26T15:53:23Z</time>
      </trkpt>
      <trkpt lat="44.79528" lon="1.60584">
        <ele>123.92</ele>
        <time>2023-09-26T15:53:32Z</time>
      </trkpt>
      <trkpt lat="44.79524" lon="1.60597">
        <ele>123.97</ele>
        <time>2023-09-26T15:53:41Z</time>
      </trkpt>
      <trkpt lat="44.7952" lon="1.60611">
        <ele>124.22</ele>
        <time>2023-09-26T15:53:50Z</time>
      </trkpt>
      <trkpt lat="44.79516" lon="1.60623">
        <ele>124.34</ele>
        <time>2023-09-26T15:53:57Z</time>
      </trkpt>
      <trkpt lat="44.79513" lon="1.60635">
        <ele>124.71</ele>
        <time>2023-09-26T15:54:05Z</time>
      </trkpt>
      <trkpt lat="44.79509" lon="1.60647">
        <ele>124.9</ele>
        <time>2023-09-26T15:54:14Z</time>
      </trkpt>
      <trkpt lat="44.79506" lon="1.60661">
        <ele>125.12</ele>
        <time>2023-09-26T15:54:22Z</time>
      </trkpt>
      <trkpt lat="44.79503" lon="1.60673">
        <ele>125.45</ele>
        <time>2023-09-26T15:54:30Z</time>
      </trkpt>
      <trkpt lat="44.79501" lon="1.60688">
        <ele>125.64</ele>
        <time>2023-09-26T15:54:39Z</time>
      </trkpt>
      <trkpt lat="44.79501" lon="1.60702">
        <ele>125.74</ele>
        <time>2023-09-26T15:54:47Z</time>
      </trkpt>
      <trkpt lat="44.79502" lon="1.60718">
        <ele>126.17</ele>
        <time>2023-09-26T15:54:55Z</time>
      </trkpt>
      <trkpt lat="44.79503" lon="1.6073">
        <ele>126.44</ele>
        <time>2023-09-26T15:55:03Z</time>
      </trkpt>
      <trkpt lat="44.79504" lon="1.60741">
        <ele>126.45</ele>
        <time>2023-09-26T15:55:11Z</time>
      </trkpt>
      <trkpt lat="44.79507" lon="1.60752">
        <ele>126.54</ele>
        <time>2023-09-26T15:55:19Z</time>
      </trkpt>
      <trkpt lat="44.79507" lon="1.60763">
        <ele>126.66</ele>
        <time>2023-09-26T15:55:28Z</time>
      </trkpt>
      <trkpt lat="44.79513" lon="1.60774">
        <ele>126.95</ele>
        <time>2023-09-26T15:55:38Z</time>
      </trkpt>
      <trkpt lat="44.79525" lon="1.60782">
        <ele>127.14</ele>
        <time>2023-09-26T15:55:48Z</time>
      </trkpt>
      <trkpt lat="44.79534" lon="1.60792">
        <ele>127.14</ele>
        <time>2023-09-26T15:55:57Z</time>
      </trkpt>
      <trkpt lat="44.79542" lon="1.60801">
        <ele>127</ele>
        <time>2023-09-26T15:56:08Z</time>
      </trkpt>
      <trkpt lat="44.79556" lon="1.60809">
        <ele>126.8</ele>
        <time>2023-09-26T15:56:19Z</time>
      </trkpt>
      <trkpt lat="44.79566" lon="1.60816">
        <ele>126.77</ele>
        <time>2023-09-26T15:56:30Z</time>
      </trkpt>
      <trkpt lat="44.79574" lon="1.60823">
        <ele>126.81</ele>
        <time>2023-09-26T15:56:39Z</time>
      </trkpt>
      <trkpt lat="44.79582" lon="1.60833">
        <ele>126.86</ele>
        <time>2023-09-26T15:56:48Z</time>
      </trkpt>
      <trkpt lat="44.79591" lon="1.60846">
        <ele>126.91</ele>
        <time>2023-09-26T15:56:56Z</time>
      </trkpt>
      <trkpt lat="44.79598" lon="1.60857">
        <ele>127.33</ele>
        <time>2023-09-26T15:57:05Z</time>
      </trkpt>
      <trkpt lat="44.79606" lon="1.60868">
        <ele>127.3</ele>
        <time>2023-09-26T15:57:14Z</time>
      </trkpt>
      <trkpt lat="44.79612" lon="1.60874">
        <ele>127.24</ele>
        <time>2023-09-26T15:57:21Z</time>
      </trkpt>
      <trkpt lat="44.7962" lon="1.60882">
        <ele>127.13</ele>
        <time>2023-09-26T15:57:29Z</time>
      </trkpt>
      <trkpt lat="44.79629" lon="1.60886">
        <ele>126.55</ele>
        <time>2023-09-26T15:57:39Z</time>
      </trkpt>
      <trkpt lat="44.79636" lon="1.60895">
        <ele>126.99</ele>
        <time>2023-09-26T15:58:00Z</time>
      </trkpt>
      <trkpt lat="44.79644" lon="1.60903">
        <ele>127.03</ele>
        <time>2023-09-26T15:58:09Z</time>
      </trkpt>
      <trkpt lat="44.7965" lon="1.60912">
        <ele>127.07</ele>
        <time>2023-09-26T15:58:18Z</time>
      </trkpt>
      <trkpt lat="44.79659" lon="1.60924">
        <ele>127.09</ele>
        <time>2023-09-26T15:58:27Z</time>
      </trkpt>
      <trkpt lat="44.79667" lon="1.60938">
        <ele>127.14</ele>
        <time>2023-09-26T15:58:37Z</time>
      </trkpt>
      <trkpt lat="44.79676" lon="1.60947">
        <ele>127.36</ele>
        <time>2023-09-26T15:58:47Z</time>
      </trkpt>
      <trkpt lat="44.79684" lon="1.60958">
        <ele>127.57</ele>
        <time>2023-09-26T15:58:57Z</time>
      </trkpt>
      <trkpt lat="44.79694" lon="1.60971">
        <ele>127.77</ele>
        <time>2023-09-26T15:59:07Z</time>
      </trkpt>
      <trkpt lat="44.79702" lon="1.6098">
        <ele>127.94</ele>
        <time>2023-09-26T15:59:16Z</time>
      </trkpt>
      <trkpt lat="44.79706" lon="1.60985">
        <ele>112.01</ele>
        <time>2023-09-26T15:59:24Z</time>
      </trkpt>
    </trkseg>
  </trk>
</gpx>